<?xml version="1.0" encoding="UTF-8" standalone="no" ?>
<gpx xmlns="http://www.topografix.com/GPX/1/1" xmlns:xsi="http://www.w3.org/2001/XMLSchema-instance" xsi:schemaLocation="http://www.topografix.com/GPX/1/1 http://www.topografix.com/GPX/1/1/gpx.xsd" version="1.1" creator="VisuGPX - https://www.visugpx.com">
  <metadata>
    <name>La roche Vendreix  2021-07-23 12:35:56</name>
  </metadata>
  <trk>
    <name><![CDATA[2021-07-23 12:35:56]]></name>
    <trkseg>
      <trkpt lat="45.58492" lon="2.7396">
        <ele>867</ele>
        <time>2021-07-23T07:15:23Z</time>
      </trkpt>
      <trkpt lat="45.58492" lon="2.7396">
        <ele>867</ele>
        <time>2021-07-23T07:15:24Z</time>
      </trkpt>
      <trkpt lat="45.58492" lon="2.73961">
        <ele>867</ele>
        <time>2021-07-23T07:15:29Z</time>
      </trkpt>
      <trkpt lat="45.58491" lon="2.73962">
        <ele>867.1</ele>
        <time>2021-07-23T07:15:31Z</time>
      </trkpt>
      <trkpt lat="45.58498" lon="2.73962">
        <ele>866.7</ele>
        <time>2021-07-23T07:15:48Z</time>
      </trkpt>
      <trkpt lat="45.58506" lon="2.73956">
        <ele>866.2</ele>
        <time>2021-07-23T07:15:59Z</time>
      </trkpt>
      <trkpt lat="45.58507" lon="2.73956">
        <ele>866.1</ele>
        <time>2021-07-23T07:16:00Z</time>
      </trkpt>
      <trkpt lat="45.5852" lon="2.73948">
        <ele>865.3</ele>
        <time>2021-07-23T07:16:13Z</time>
      </trkpt>
      <trkpt lat="45.58529" lon="2.7394">
        <ele>864.5</ele>
        <time>2021-07-23T07:16:24Z</time>
      </trkpt>
      <trkpt lat="45.58538" lon="2.73932">
        <ele>863.6</ele>
        <time>2021-07-23T07:16:34Z</time>
      </trkpt>
      <trkpt lat="45.58545" lon="2.73932">
        <ele>863.2</ele>
        <time>2021-07-23T07:16:49Z</time>
      </trkpt>
      <trkpt lat="45.58547" lon="2.73941">
        <ele>863.7</ele>
        <time>2021-07-23T07:16:59Z</time>
      </trkpt>
      <trkpt lat="45.58548" lon="2.73956">
        <ele>864.6</ele>
        <time>2021-07-23T07:17:10Z</time>
      </trkpt>
      <trkpt lat="45.58556" lon="2.73975">
        <ele>865.6</ele>
        <time>2021-07-23T07:17:24Z</time>
      </trkpt>
      <trkpt lat="45.5856" lon="2.73975">
        <ele>865.5</ele>
        <time>2021-07-23T07:17:34Z</time>
      </trkpt>
      <trkpt lat="45.5856" lon="2.73975">
        <ele>865.5</ele>
        <time>2021-07-23T07:17:35Z</time>
      </trkpt>
      <trkpt lat="45.58558" lon="2.73982">
        <ele>866.1</ele>
        <time>2021-07-23T07:17:47Z</time>
      </trkpt>
      <trkpt lat="45.58558" lon="2.73991">
        <ele>866.6</ele>
        <time>2021-07-23T07:18:00Z</time>
      </trkpt>
      <trkpt lat="45.58558" lon="2.73995">
        <ele>867</ele>
        <time>2021-07-23T07:18:04Z</time>
      </trkpt>
      <trkpt lat="45.58558" lon="2.74008">
        <ele>868.2</ele>
        <time>2021-07-23T07:18:16Z</time>
      </trkpt>
      <trkpt lat="45.58554" lon="2.74015">
        <ele>869</ele>
        <time>2021-07-23T07:18:29Z</time>
      </trkpt>
      <trkpt lat="45.58546" lon="2.74013">
        <ele>868.9</ele>
        <time>2021-07-23T07:18:44Z</time>
      </trkpt>
      <trkpt lat="45.58529" lon="2.7402">
        <ele>869.8</ele>
        <time>2021-07-23T07:18:59Z</time>
      </trkpt>
      <trkpt lat="45.58521" lon="2.74026">
        <ele>870.4</ele>
        <time>2021-07-23T07:19:05Z</time>
      </trkpt>
      <trkpt lat="45.58517" lon="2.74032">
        <ele>871</ele>
        <time>2021-07-23T07:19:09Z</time>
      </trkpt>
      <trkpt lat="45.58517" lon="2.74036">
        <ele>871.5</ele>
        <time>2021-07-23T07:19:11Z</time>
      </trkpt>
      <trkpt lat="45.58509" lon="2.74057">
        <ele>873.5</ele>
        <time>2021-07-23T07:19:22Z</time>
      </trkpt>
      <trkpt lat="45.58507" lon="2.74062">
        <ele>874</ele>
        <time>2021-07-23T07:19:26Z</time>
      </trkpt>
      <trkpt lat="45.58502" lon="2.74076">
        <ele>875.3</ele>
        <time>2021-07-23T07:19:39Z</time>
      </trkpt>
      <trkpt lat="45.58501" lon="2.74077">
        <ele>875.4</ele>
        <time>2021-07-23T07:19:40Z</time>
      </trkpt>
      <trkpt lat="45.58479" lon="2.74098">
        <ele>876.4</ele>
        <time>2021-07-23T07:19:59Z</time>
      </trkpt>
      <trkpt lat="45.58473" lon="2.74102">
        <ele>876.5</ele>
        <time>2021-07-23T07:20:04Z</time>
      </trkpt>
      <trkpt lat="45.58464" lon="2.74114">
        <ele>876.9</ele>
        <time>2021-07-23T07:20:15Z</time>
      </trkpt>
      <trkpt lat="45.58454" lon="2.74127">
        <ele>877.4</ele>
        <time>2021-07-23T07:20:27Z</time>
      </trkpt>
      <trkpt lat="45.58444" lon="2.74141">
        <ele>877.9</ele>
        <time>2021-07-23T07:20:40Z</time>
      </trkpt>
      <trkpt lat="45.58434" lon="2.74159">
        <ele>878.5</ele>
        <time>2021-07-23T07:20:53Z</time>
      </trkpt>
      <trkpt lat="45.58425" lon="2.74177">
        <ele>879</ele>
        <time>2021-07-23T07:21:05Z</time>
      </trkpt>
      <trkpt lat="45.58411" lon="2.74201">
        <ele>879.8</ele>
        <time>2021-07-23T07:21:22Z</time>
      </trkpt>
      <trkpt lat="45.58399" lon="2.7422">
        <ele>881</ele>
        <time>2021-07-23T07:21:37Z</time>
      </trkpt>
      <trkpt lat="45.58384" lon="2.7424">
        <ele>882</ele>
        <time>2021-07-23T07:21:53Z</time>
      </trkpt>
      <trkpt lat="45.58373" lon="2.74253">
        <ele>882.9</ele>
        <time>2021-07-23T07:22:07Z</time>
      </trkpt>
      <trkpt lat="45.58363" lon="2.74263">
        <ele>884</ele>
        <time>2021-07-23T07:22:18Z</time>
      </trkpt>
      <trkpt lat="45.58351" lon="2.74275">
        <ele>885.2</ele>
        <time>2021-07-23T07:22:29Z</time>
      </trkpt>
      <trkpt lat="45.5835" lon="2.74279">
        <ele>885.6</ele>
        <time>2021-07-23T07:22:41Z</time>
      </trkpt>
      <trkpt lat="45.58355" lon="2.74292">
        <ele>886.9</ele>
        <time>2021-07-23T07:22:55Z</time>
      </trkpt>
      <trkpt lat="45.58359" lon="2.74295">
        <ele>887.3</ele>
        <time>2021-07-23T07:23:01Z</time>
      </trkpt>
      <trkpt lat="45.58359" lon="2.74304">
        <ele>888.2</ele>
        <time>2021-07-23T07:23:16Z</time>
      </trkpt>
      <trkpt lat="45.58357" lon="2.74322">
        <ele>890</ele>
        <time>2021-07-23T07:23:33Z</time>
      </trkpt>
      <trkpt lat="45.58355" lon="2.74344">
        <ele>891.9</ele>
        <time>2021-07-23T07:23:49Z</time>
      </trkpt>
      <trkpt lat="45.58353" lon="2.74371">
        <ele>893.8</ele>
        <time>2021-07-23T07:24:05Z</time>
      </trkpt>
      <trkpt lat="45.5835" lon="2.74392">
        <ele>895.2</ele>
        <time>2021-07-23T07:24:18Z</time>
      </trkpt>
      <trkpt lat="45.58343" lon="2.74405">
        <ele>895.4</ele>
        <time>2021-07-23T07:24:27Z</time>
      </trkpt>
      <trkpt lat="45.5833" lon="2.74414">
        <ele>894.7</ele>
        <time>2021-07-23T07:24:38Z</time>
      </trkpt>
      <trkpt lat="45.58329" lon="2.7442">
        <ele>895</ele>
        <time>2021-07-23T07:24:43Z</time>
      </trkpt>
      <trkpt lat="45.58336" lon="2.74437">
        <ele>897.6</ele>
        <time>2021-07-23T07:25:01Z</time>
      </trkpt>
      <trkpt lat="45.58343" lon="2.74451">
        <ele>899.9</ele>
        <time>2021-07-23T07:25:12Z</time>
      </trkpt>
      <trkpt lat="45.5835" lon="2.74462">
        <ele>902.1</ele>
        <time>2021-07-23T07:25:28Z</time>
      </trkpt>
      <trkpt lat="45.58354" lon="2.74479">
        <ele>904.3</ele>
        <time>2021-07-23T07:25:41Z</time>
      </trkpt>
      <trkpt lat="45.58362" lon="2.7449">
        <ele>906.7</ele>
        <time>2021-07-23T07:25:55Z</time>
      </trkpt>
      <trkpt lat="45.58357" lon="2.74499">
        <ele>907</ele>
        <time>2021-07-23T07:26:09Z</time>
      </trkpt>
      <trkpt lat="45.58352" lon="2.74502">
        <ele>906.8</ele>
        <time>2021-07-23T07:26:14Z</time>
      </trkpt>
      <trkpt lat="45.58334" lon="2.74511">
        <ele>905.6</ele>
        <time>2021-07-23T07:26:28Z</time>
      </trkpt>
      <trkpt lat="45.58321" lon="2.74518">
        <ele>905.6</ele>
        <time>2021-07-23T07:26:40Z</time>
      </trkpt>
      <trkpt lat="45.58305" lon="2.74523">
        <ele>904.9</ele>
        <time>2021-07-23T07:26:53Z</time>
      </trkpt>
      <trkpt lat="45.5829" lon="2.74531">
        <ele>904.5</ele>
        <time>2021-07-23T07:27:03Z</time>
      </trkpt>
      <trkpt lat="45.58282" lon="2.74535">
        <ele>904.4</ele>
        <time>2021-07-23T07:27:13Z</time>
      </trkpt>
      <trkpt lat="45.58273" lon="2.74541">
        <ele>904.2</ele>
        <time>2021-07-23T07:27:23Z</time>
      </trkpt>
      <trkpt lat="45.58264" lon="2.74548">
        <ele>904</ele>
        <time>2021-07-23T07:27:34Z</time>
      </trkpt>
      <trkpt lat="45.58256" lon="2.74552">
        <ele>903.6</ele>
        <time>2021-07-23T07:27:44Z</time>
      </trkpt>
      <trkpt lat="45.58246" lon="2.74558">
        <ele>903.4</ele>
        <time>2021-07-23T07:27:53Z</time>
      </trkpt>
      <trkpt lat="45.5823" lon="2.74566">
        <ele>903.7</ele>
        <time>2021-07-23T07:28:05Z</time>
      </trkpt>
      <trkpt lat="45.58222" lon="2.74572">
        <ele>904</ele>
        <time>2021-07-23T07:28:14Z</time>
      </trkpt>
      <trkpt lat="45.58212" lon="2.74578">
        <ele>904.2</ele>
        <time>2021-07-23T07:28:24Z</time>
      </trkpt>
      <trkpt lat="45.58196" lon="2.74588">
        <ele>904.7</ele>
        <time>2021-07-23T07:28:37Z</time>
      </trkpt>
      <trkpt lat="45.58191" lon="2.74592">
        <ele>905</ele>
        <time>2021-07-23T07:28:43Z</time>
      </trkpt>
      <trkpt lat="45.58181" lon="2.74595">
        <ele>905</ele>
        <time>2021-07-23T07:28:54Z</time>
      </trkpt>
      <trkpt lat="45.5816" lon="2.74592">
        <ele>904.4</ele>
        <time>2021-07-23T07:29:11Z</time>
      </trkpt>
      <trkpt lat="45.58158" lon="2.74592">
        <ele>904.4</ele>
        <time>2021-07-23T07:29:12Z</time>
      </trkpt>
      <trkpt lat="45.58136" lon="2.74593">
        <ele>905.5</ele>
        <time>2021-07-23T07:29:26Z</time>
      </trkpt>
      <trkpt lat="45.58131" lon="2.74596">
        <ele>905.9</ele>
        <time>2021-07-23T07:29:30Z</time>
      </trkpt>
      <trkpt lat="45.58117" lon="2.74603">
        <ele>907.1</ele>
        <time>2021-07-23T07:29:41Z</time>
      </trkpt>
      <trkpt lat="45.58107" lon="2.74608">
        <ele>908</ele>
        <time>2021-07-23T07:29:53Z</time>
      </trkpt>
      <trkpt lat="45.58095" lon="2.74612">
        <ele>908.7</ele>
        <time>2021-07-23T07:30:07Z</time>
      </trkpt>
      <trkpt lat="45.58085" lon="2.74608">
        <ele>908.7</ele>
        <time>2021-07-23T07:30:23Z</time>
      </trkpt>
      <trkpt lat="45.58071" lon="2.74607">
        <ele>908.6</ele>
        <time>2021-07-23T07:30:37Z</time>
      </trkpt>
      <trkpt lat="45.58065" lon="2.74607">
        <ele>908.6</ele>
        <time>2021-07-23T07:30:39Z</time>
      </trkpt>
      <trkpt lat="45.58039" lon="2.74611">
        <ele>908.7</ele>
        <time>2021-07-23T07:30:52Z</time>
      </trkpt>
      <trkpt lat="45.58022" lon="2.74612">
        <ele>908.5</ele>
        <time>2021-07-23T07:31:04Z</time>
      </trkpt>
      <trkpt lat="45.58009" lon="2.74611">
        <ele>908.4</ele>
        <time>2021-07-23T07:31:16Z</time>
      </trkpt>
      <trkpt lat="45.57993" lon="2.74612">
        <ele>908.7</ele>
        <time>2021-07-23T07:31:31Z</time>
      </trkpt>
      <trkpt lat="45.5797" lon="2.74617">
        <ele>909.9</ele>
        <time>2021-07-23T07:31:45Z</time>
      </trkpt>
      <trkpt lat="45.57952" lon="2.7462">
        <ele>910.8</ele>
        <time>2021-07-23T07:31:59Z</time>
      </trkpt>
      <trkpt lat="45.57943" lon="2.74625">
        <ele>911.6</ele>
        <time>2021-07-23T07:32:08Z</time>
      </trkpt>
      <trkpt lat="45.57929" lon="2.74624">
        <ele>911.9</ele>
        <time>2021-07-23T07:32:19Z</time>
      </trkpt>
      <trkpt lat="45.57925" lon="2.74624">
        <ele>912.1</ele>
        <time>2021-07-23T07:32:23Z</time>
      </trkpt>
      <trkpt lat="45.57923" lon="2.74625">
        <ele>912.3</ele>
        <time>2021-07-23T07:32:25Z</time>
      </trkpt>
      <trkpt lat="45.5791" lon="2.74628">
        <ele>912.7</ele>
        <time>2021-07-23T07:32:35Z</time>
      </trkpt>
      <trkpt lat="45.579" lon="2.74638">
        <ele>913.3</ele>
        <time>2021-07-23T07:32:44Z</time>
      </trkpt>
      <trkpt lat="45.57894" lon="2.74645">
        <ele>913.6</ele>
        <time>2021-07-23T07:32:50Z</time>
      </trkpt>
      <trkpt lat="45.57887" lon="2.74653">
        <ele>913.8</ele>
        <time>2021-07-23T07:32:59Z</time>
      </trkpt>
      <trkpt lat="45.57878" lon="2.74662">
        <ele>913.9</ele>
        <time>2021-07-23T07:33:09Z</time>
      </trkpt>
      <trkpt lat="45.5787" lon="2.74672">
        <ele>914.7</ele>
        <time>2021-07-23T07:33:24Z</time>
      </trkpt>
      <trkpt lat="45.5787" lon="2.74681">
        <ele>916.5</ele>
        <time>2021-07-23T07:33:39Z</time>
      </trkpt>
      <trkpt lat="45.57869" lon="2.74693">
        <ele>918.8</ele>
        <time>2021-07-23T07:33:55Z</time>
      </trkpt>
      <trkpt lat="45.57867" lon="2.74717">
        <ele>923.2</ele>
        <time>2021-07-23T07:34:12Z</time>
      </trkpt>
      <trkpt lat="45.57862" lon="2.74728">
        <ele>925.4</ele>
        <time>2021-07-23T07:34:29Z</time>
      </trkpt>
      <trkpt lat="45.5785" lon="2.74743">
        <ele>928.3</ele>
        <time>2021-07-23T07:34:48Z</time>
      </trkpt>
      <trkpt lat="45.57844" lon="2.74756">
        <ele>930.7</ele>
        <time>2021-07-23T07:35:03Z</time>
      </trkpt>
      <trkpt lat="45.57842" lon="2.7477">
        <ele>933</ele>
        <time>2021-07-23T07:35:18Z</time>
      </trkpt>
      <trkpt lat="45.5784" lon="2.74781">
        <ele>934.8</ele>
        <time>2021-07-23T07:35:33Z</time>
      </trkpt>
      <trkpt lat="45.57837" lon="2.74794">
        <ele>936.8</ele>
        <time>2021-07-23T07:35:49Z</time>
      </trkpt>
      <trkpt lat="45.57834" lon="2.74808">
        <ele>939.1</ele>
        <time>2021-07-23T07:36:06Z</time>
      </trkpt>
      <trkpt lat="45.57834" lon="2.74822">
        <ele>941.2</ele>
        <time>2021-07-23T07:36:20Z</time>
      </trkpt>
      <trkpt lat="45.57836" lon="2.74838">
        <ele>943.8</ele>
        <time>2021-07-23T07:36:35Z</time>
      </trkpt>
      <trkpt lat="45.57833" lon="2.74845">
        <ele>945.3</ele>
        <time>2021-07-23T07:36:45Z</time>
      </trkpt>
      <trkpt lat="45.57823" lon="2.74847">
        <ele>945.8</ele>
        <time>2021-07-23T07:37:01Z</time>
      </trkpt>
      <trkpt lat="45.57815" lon="2.74852">
        <ele>947</ele>
        <time>2021-07-23T07:37:17Z</time>
      </trkpt>
      <trkpt lat="45.57807" lon="2.74855">
        <ele>947.6</ele>
        <time>2021-07-23T07:37:32Z</time>
      </trkpt>
      <trkpt lat="45.57795" lon="2.74851">
        <ele>947.2</ele>
        <time>2021-07-23T07:37:47Z</time>
      </trkpt>
      <trkpt lat="45.57788" lon="2.74848">
        <ele>946.9</ele>
        <time>2021-07-23T07:37:54Z</time>
      </trkpt>
      <trkpt lat="45.57768" lon="2.74844">
        <ele>946.5</ele>
        <time>2021-07-23T07:38:12Z</time>
      </trkpt>
      <trkpt lat="45.57753" lon="2.74846">
        <ele>947.3</ele>
        <time>2021-07-23T07:38:25Z</time>
      </trkpt>
      <trkpt lat="45.57736" lon="2.7485">
        <ele>947.4</ele>
        <time>2021-07-23T07:38:40Z</time>
      </trkpt>
      <trkpt lat="45.57721" lon="2.74853">
        <ele>947.4</ele>
        <time>2021-07-23T07:38:53Z</time>
      </trkpt>
      <trkpt lat="45.57706" lon="2.74855">
        <ele>947.1</ele>
        <time>2021-07-23T07:39:05Z</time>
      </trkpt>
      <trkpt lat="45.57692" lon="2.74854">
        <ele>946.4</ele>
        <time>2021-07-23T07:39:16Z</time>
      </trkpt>
      <trkpt lat="45.5768" lon="2.74853">
        <ele>945.9</ele>
        <time>2021-07-23T07:39:26Z</time>
      </trkpt>
      <trkpt lat="45.57666" lon="2.74858">
        <ele>946.1</ele>
        <time>2021-07-23T07:39:44Z</time>
      </trkpt>
      <trkpt lat="45.5765" lon="2.74864">
        <ele>946.5</ele>
        <time>2021-07-23T07:39:59Z</time>
      </trkpt>
      <trkpt lat="45.57639" lon="2.74869">
        <ele>946.9</ele>
        <time>2021-07-23T07:40:09Z</time>
      </trkpt>
      <trkpt lat="45.57625" lon="2.74875">
        <ele>947</ele>
        <time>2021-07-23T07:40:22Z</time>
      </trkpt>
      <trkpt lat="45.57613" lon="2.74879">
        <ele>946.8</ele>
        <time>2021-07-23T07:40:37Z</time>
      </trkpt>
      <trkpt lat="45.57598" lon="2.74885">
        <ele>946.6</ele>
        <time>2021-07-23T07:40:52Z</time>
      </trkpt>
      <trkpt lat="45.57581" lon="2.74888">
        <ele>946</ele>
        <time>2021-07-23T07:41:09Z</time>
      </trkpt>
      <trkpt lat="45.57562" lon="2.74887">
        <ele>946.3</ele>
        <time>2021-07-23T07:41:22Z</time>
      </trkpt>
      <trkpt lat="45.57543" lon="2.74895">
        <ele>947.2</ele>
        <time>2021-07-23T07:41:33Z</time>
      </trkpt>
      <trkpt lat="45.57531" lon="2.74902">
        <ele>947.8</ele>
        <time>2021-07-23T07:41:43Z</time>
      </trkpt>
      <trkpt lat="45.57514" lon="2.74908">
        <ele>948.4</ele>
        <time>2021-07-23T07:42:01Z</time>
      </trkpt>
      <trkpt lat="45.5751" lon="2.74908">
        <ele>948.4</ele>
        <time>2021-07-23T07:42:05Z</time>
      </trkpt>
      <trkpt lat="45.5749" lon="2.74905">
        <ele>948.7</ele>
        <time>2021-07-23T07:42:21Z</time>
      </trkpt>
      <trkpt lat="45.57479" lon="2.74902">
        <ele>948.9</ele>
        <time>2021-07-23T07:42:34Z</time>
      </trkpt>
      <trkpt lat="45.57471" lon="2.74904">
        <ele>949.2</ele>
        <time>2021-07-23T07:42:48Z</time>
      </trkpt>
      <trkpt lat="45.57454" lon="2.74909">
        <ele>949.6</ele>
        <time>2021-07-23T07:43:04Z</time>
      </trkpt>
      <trkpt lat="45.57432" lon="2.74921">
        <ele>950.2</ele>
        <time>2021-07-23T07:43:20Z</time>
      </trkpt>
      <trkpt lat="45.57421" lon="2.74935">
        <ele>951.5</ele>
        <time>2021-07-23T07:43:36Z</time>
      </trkpt>
      <trkpt lat="45.57406" lon="2.74947">
        <ele>953.1</ele>
        <time>2021-07-23T07:43:52Z</time>
      </trkpt>
      <trkpt lat="45.57391" lon="2.74963">
        <ele>954.7</ele>
        <time>2021-07-23T07:44:09Z</time>
      </trkpt>
      <trkpt lat="45.5739" lon="2.74964">
        <ele>954.8</ele>
        <time>2021-07-23T07:44:10Z</time>
      </trkpt>
      <trkpt lat="45.5738" lon="2.74978">
        <ele>955.6</ele>
        <time>2021-07-23T07:44:24Z</time>
      </trkpt>
      <trkpt lat="45.5737" lon="2.7499">
        <ele>956.1</ele>
        <time>2021-07-23T07:44:38Z</time>
      </trkpt>
      <trkpt lat="45.57363" lon="2.75001">
        <ele>956.4</ele>
        <time>2021-07-23T07:44:49Z</time>
      </trkpt>
      <trkpt lat="45.57354" lon="2.75009">
        <ele>956.8</ele>
        <time>2021-07-23T07:45:03Z</time>
      </trkpt>
      <trkpt lat="45.57348" lon="2.75022">
        <ele>957.4</ele>
        <time>2021-07-23T07:45:18Z</time>
      </trkpt>
      <trkpt lat="45.57337" lon="2.75047">
        <ele>958.4</ele>
        <time>2021-07-23T07:45:36Z</time>
      </trkpt>
      <trkpt lat="45.57327" lon="2.75065">
        <ele>959.6</ele>
        <time>2021-07-23T07:45:53Z</time>
      </trkpt>
      <trkpt lat="45.57313" lon="2.75085">
        <ele>961.6</ele>
        <time>2021-07-23T07:46:10Z</time>
      </trkpt>
      <trkpt lat="45.57297" lon="2.751">
        <ele>963.5</ele>
        <time>2021-07-23T07:46:27Z</time>
      </trkpt>
      <trkpt lat="45.57293" lon="2.75107">
        <ele>963.9</ele>
        <time>2021-07-23T07:46:33Z</time>
      </trkpt>
      <trkpt lat="45.57286" lon="2.75126">
        <ele>964.8</ele>
        <time>2021-07-23T07:46:48Z</time>
      </trkpt>
      <trkpt lat="45.57277" lon="2.7514">
        <ele>965.1</ele>
        <time>2021-07-23T07:47:04Z</time>
      </trkpt>
      <trkpt lat="45.57269" lon="2.75153">
        <ele>965.1</ele>
        <time>2021-07-23T07:47:15Z</time>
      </trkpt>
      <trkpt lat="45.57261" lon="2.7516">
        <ele>964.7</ele>
        <time>2021-07-23T07:47:25Z</time>
      </trkpt>
      <trkpt lat="45.57251" lon="2.75167">
        <ele>964.2</ele>
        <time>2021-07-23T07:47:40Z</time>
      </trkpt>
      <trkpt lat="45.57247" lon="2.75175">
        <ele>966.1</ele>
        <time>2021-07-23T07:47:55Z</time>
      </trkpt>
      <trkpt lat="45.5724" lon="2.75188">
        <ele>969.3</ele>
        <time>2021-07-23T07:48:07Z</time>
      </trkpt>
      <trkpt lat="45.57231" lon="2.75199">
        <ele>972.2</ele>
        <time>2021-07-23T07:48:24Z</time>
      </trkpt>
      <trkpt lat="45.5723" lon="2.752">
        <ele>972.5</ele>
        <time>2021-07-23T07:48:26Z</time>
      </trkpt>
      <trkpt lat="45.57225" lon="2.75206">
        <ele>973.8</ele>
        <time>2021-07-23T07:48:41Z</time>
      </trkpt>
      <trkpt lat="45.57213" lon="2.75214">
        <ele>976.1</ele>
        <time>2021-07-23T07:48:55Z</time>
      </trkpt>
      <trkpt lat="45.57203" lon="2.75221">
        <ele>977.6</ele>
        <time>2021-07-23T07:49:06Z</time>
      </trkpt>
      <trkpt lat="45.57192" lon="2.75234">
        <ele>978.9</ele>
        <time>2021-07-23T07:49:21Z</time>
      </trkpt>
      <trkpt lat="45.57183" lon="2.7525">
        <ele>979.6</ele>
        <time>2021-07-23T07:49:38Z</time>
      </trkpt>
      <trkpt lat="45.57178" lon="2.75256">
        <ele>980.9</ele>
        <time>2021-07-23T07:49:44Z</time>
      </trkpt>
      <trkpt lat="45.57169" lon="2.75268">
        <ele>983.8</ele>
        <time>2021-07-23T07:49:57Z</time>
      </trkpt>
      <trkpt lat="45.57161" lon="2.75274">
        <ele>985.8</ele>
        <time>2021-07-23T07:50:13Z</time>
      </trkpt>
      <trkpt lat="45.57162" lon="2.75318">
        <ele>995.5</ele>
        <time>2021-07-23T08:02:11Z</time>
      </trkpt>
      <trkpt lat="45.57165" lon="2.75321">
        <ele>995.7</ele>
        <time>2021-07-23T08:02:30Z</time>
      </trkpt>
      <trkpt lat="45.57162" lon="2.75326">
        <ele>997.4</ele>
        <time>2021-07-23T08:02:44Z</time>
      </trkpt>
      <trkpt lat="45.57158" lon="2.75325">
        <ele>997.7</ele>
        <time>2021-07-23T08:02:52Z</time>
      </trkpt>
      <trkpt lat="45.57152" lon="2.75326">
        <ele>999.1</ele>
        <time>2021-07-23T08:03:08Z</time>
      </trkpt>
      <trkpt lat="45.57153" lon="2.75332">
        <ele>1000.3</ele>
        <time>2021-07-23T08:03:24Z</time>
      </trkpt>
      <trkpt lat="45.5714" lon="2.75336">
        <ele>1003.7</ele>
        <time>2021-07-23T08:03:38Z</time>
      </trkpt>
      <trkpt lat="45.57135" lon="2.7534">
        <ele>1006.2</ele>
        <time>2021-07-23T08:03:53Z</time>
      </trkpt>
      <trkpt lat="45.57125" lon="2.75344">
        <ele>1009.5</ele>
        <time>2021-07-23T08:04:11Z</time>
      </trkpt>
      <trkpt lat="45.57122" lon="2.75354">
        <ele>1013.4</ele>
        <time>2021-07-23T08:04:26Z</time>
      </trkpt>
      <trkpt lat="45.57118" lon="2.75366">
        <ele>1018.3</ele>
        <time>2021-07-23T08:04:43Z</time>
      </trkpt>
      <trkpt lat="45.57112" lon="2.75366">
        <ele>1019.4</ele>
        <time>2021-07-23T08:05:00Z</time>
      </trkpt>
      <trkpt lat="45.57109" lon="2.75364">
        <ele>1019.4</ele>
        <time>2021-07-23T08:05:18Z</time>
      </trkpt>
      <trkpt lat="45.57108" lon="2.75364">
        <ele>1019.9</ele>
        <time>2021-07-23T08:05:20Z</time>
      </trkpt>
      <trkpt lat="45.57107" lon="2.75366">
        <ele>1020.9</ele>
        <time>2021-07-23T08:05:24Z</time>
      </trkpt>
      <trkpt lat="45.57105" lon="2.75367">
        <ele>1021.9</ele>
        <time>2021-07-23T08:05:30Z</time>
      </trkpt>
      <trkpt lat="45.57097" lon="2.75375">
        <ele>1026.3</ele>
        <time>2021-07-23T08:05:49Z</time>
      </trkpt>
      <trkpt lat="45.57092" lon="2.75373">
        <ele>1026.9</ele>
        <time>2021-07-23T08:06:06Z</time>
      </trkpt>
      <trkpt lat="45.57086" lon="2.75374">
        <ele>1028.9</ele>
        <time>2021-07-23T08:06:21Z</time>
      </trkpt>
      <trkpt lat="45.57087" lon="2.75374">
        <ele>1028.8</ele>
        <time>2021-07-23T08:06:22Z</time>
      </trkpt>
      <trkpt lat="45.57083" lon="2.75382">
        <ele>1032.5</ele>
        <time>2021-07-23T08:06:32Z</time>
      </trkpt>
      <trkpt lat="45.5708" lon="2.7539">
        <ele>1036.6</ele>
        <time>2021-07-23T08:06:50Z</time>
      </trkpt>
      <trkpt lat="45.57076" lon="2.75394">
        <ele>1039.2</ele>
        <time>2021-07-23T08:07:05Z</time>
      </trkpt>
      <trkpt lat="45.5707" lon="2.75392">
        <ele>1039.8</ele>
        <time>2021-07-23T08:07:21Z</time>
      </trkpt>
      <trkpt lat="45.57063" lon="2.75401">
        <ele>1045.1</ele>
        <time>2021-07-23T08:07:36Z</time>
      </trkpt>
      <trkpt lat="45.57062" lon="2.75402">
        <ele>1045.7</ele>
        <time>2021-07-23T08:07:39Z</time>
      </trkpt>
      <trkpt lat="45.57053" lon="2.75404">
        <ele>1049</ele>
        <time>2021-07-23T08:07:49Z</time>
      </trkpt>
      <trkpt lat="45.57045" lon="2.75405">
        <ele>1051.2</ele>
        <time>2021-07-23T08:08:01Z</time>
      </trkpt>
      <trkpt lat="45.57046" lon="2.75402">
        <ele>1049.8</ele>
        <time>2021-07-23T08:08:16Z</time>
      </trkpt>
      <trkpt lat="45.57043" lon="2.75397">
        <ele>1048.2</ele>
        <time>2021-07-23T08:08:37Z</time>
      </trkpt>
      <trkpt lat="45.57039" lon="2.75405">
        <ele>1052.6</ele>
        <time>2021-07-23T08:08:52Z</time>
      </trkpt>
      <trkpt lat="45.57034" lon="2.75399">
        <ele>1051.2</ele>
        <time>2021-07-23T08:09:04Z</time>
      </trkpt>
      <trkpt lat="45.57032" lon="2.75391">
        <ele>1048.3</ele>
        <time>2021-07-23T08:09:20Z</time>
      </trkpt>
      <trkpt lat="45.57031" lon="2.75398">
        <ele>1051.7</ele>
        <time>2021-07-23T08:09:35Z</time>
      </trkpt>
      <trkpt lat="45.57027" lon="2.75401">
        <ele>1054</ele>
        <time>2021-07-23T08:09:44Z</time>
      </trkpt>
      <trkpt lat="45.57016" lon="2.75408">
        <ele>1060.1</ele>
        <time>2021-07-23T08:10:04Z</time>
      </trkpt>
      <trkpt lat="45.57014" lon="2.75409">
        <ele>1060.6</ele>
        <time>2021-07-23T08:10:07Z</time>
      </trkpt>
      <trkpt lat="45.57007" lon="2.75411">
        <ele>1063.6</ele>
        <time>2021-07-23T08:10:22Z</time>
      </trkpt>
      <trkpt lat="45.56998" lon="2.7541">
        <ele>1065</ele>
        <time>2021-07-23T08:10:37Z</time>
      </trkpt>
      <trkpt lat="45.56993" lon="2.75418">
        <ele>1068.1</ele>
        <time>2021-07-23T08:10:53Z</time>
      </trkpt>
      <trkpt lat="45.5699" lon="2.75417">
        <ele>1067.4</ele>
        <time>2021-07-23T08:10:58Z</time>
      </trkpt>
      <trkpt lat="45.56978" lon="2.75425">
        <ele>1070.2</ele>
        <time>2021-07-23T08:11:14Z</time>
      </trkpt>
      <trkpt lat="45.56967" lon="2.75419">
        <ele>1067</ele>
        <time>2021-07-23T08:11:32Z</time>
      </trkpt>
      <trkpt lat="45.56954" lon="2.75427">
        <ele>1069.2</ele>
        <time>2021-07-23T08:11:49Z</time>
      </trkpt>
      <trkpt lat="45.56949" lon="2.75435">
        <ele>1071.6</ele>
        <time>2021-07-23T08:12:05Z</time>
      </trkpt>
      <trkpt lat="45.56942" lon="2.75437">
        <ele>1071.5</ele>
        <time>2021-07-23T08:12:18Z</time>
      </trkpt>
      <trkpt lat="45.56931" lon="2.75443">
        <ele>1071.8</ele>
        <time>2021-07-23T08:12:34Z</time>
      </trkpt>
      <trkpt lat="45.56924" lon="2.75455">
        <ele>1074.3</ele>
        <time>2021-07-23T08:12:50Z</time>
      </trkpt>
      <trkpt lat="45.56918" lon="2.7547">
        <ele>1077.4</ele>
        <time>2021-07-23T08:13:08Z</time>
      </trkpt>
      <trkpt lat="45.56911" lon="2.75486">
        <ele>1080</ele>
        <time>2021-07-23T08:13:22Z</time>
      </trkpt>
      <trkpt lat="45.56906" lon="2.75504">
        <ele>1083.4</ele>
        <time>2021-07-23T08:13:37Z</time>
      </trkpt>
      <trkpt lat="45.56903" lon="2.75518">
        <ele>1086.5</ele>
        <time>2021-07-23T08:13:52Z</time>
      </trkpt>
      <trkpt lat="45.56901" lon="2.75529">
        <ele>1089.1</ele>
        <time>2021-07-23T08:14:10Z</time>
      </trkpt>
      <trkpt lat="45.56898" lon="2.75538">
        <ele>1090.7</ele>
        <time>2021-07-23T08:14:26Z</time>
      </trkpt>
      <trkpt lat="45.56891" lon="2.75547">
        <ele>1091.4</ele>
        <time>2021-07-23T08:14:42Z</time>
      </trkpt>
      <trkpt lat="45.56887" lon="2.75568">
        <ele>1096.2</ele>
        <time>2021-07-23T08:15:01Z</time>
      </trkpt>
      <trkpt lat="45.56881" lon="2.75579">
        <ele>1097.7</ele>
        <time>2021-07-23T08:15:18Z</time>
      </trkpt>
      <trkpt lat="45.56876" lon="2.75593">
        <ele>1098.8</ele>
        <time>2021-07-23T08:15:35Z</time>
      </trkpt>
      <trkpt lat="45.56872" lon="2.75606">
        <ele>1099</ele>
        <time>2021-07-23T08:15:52Z</time>
      </trkpt>
      <trkpt lat="45.56867" lon="2.75595">
        <ele>1097</ele>
        <time>2021-07-23T08:15:59Z</time>
      </trkpt>
      <trkpt lat="45.56866" lon="2.75611">
        <ele>1098.4</ele>
        <time>2021-07-23T08:16:19Z</time>
      </trkpt>
      <trkpt lat="45.56858" lon="2.75614">
        <ele>1096.8</ele>
        <time>2021-07-23T08:16:34Z</time>
      </trkpt>
      <trkpt lat="45.56849" lon="2.7562">
        <ele>1095.4</ele>
        <time>2021-07-23T08:16:48Z</time>
      </trkpt>
      <trkpt lat="45.56842" lon="2.75625">
        <ele>1094.4</ele>
        <time>2021-07-23T08:17:03Z</time>
      </trkpt>
      <trkpt lat="45.56843" lon="2.75637">
        <ele>1095.9</ele>
        <time>2021-07-23T08:17:17Z</time>
      </trkpt>
      <trkpt lat="45.56847" lon="2.75658">
        <ele>1099</ele>
        <time>2021-07-23T08:17:36Z</time>
      </trkpt>
      <trkpt lat="45.56852" lon="2.7568">
        <ele>1101.7</ele>
        <time>2021-07-23T08:17:53Z</time>
      </trkpt>
      <trkpt lat="45.56857" lon="2.75689">
        <ele>1103</ele>
        <time>2021-07-23T08:18:07Z</time>
      </trkpt>
      <trkpt lat="45.56861" lon="2.75702">
        <ele>1104.1</ele>
        <time>2021-07-23T08:18:20Z</time>
      </trkpt>
      <trkpt lat="45.56869" lon="2.75716">
        <ele>1105.3</ele>
        <time>2021-07-23T08:18:37Z</time>
      </trkpt>
      <trkpt lat="45.56877" lon="2.75731">
        <ele>1106.1</ele>
        <time>2021-07-23T08:18:52Z</time>
      </trkpt>
      <trkpt lat="45.56882" lon="2.75748">
        <ele>1106.2</ele>
        <time>2021-07-23T08:19:10Z</time>
      </trkpt>
      <trkpt lat="45.5688" lon="2.75734">
        <ele>1106.3</ele>
        <time>2021-07-23T08:19:23Z</time>
      </trkpt>
      <trkpt lat="45.56872" lon="2.75722">
        <ele>1105.8</ele>
        <time>2021-07-23T08:19:35Z</time>
      </trkpt>
      <trkpt lat="45.56869" lon="2.75716">
        <ele>1105.4</ele>
        <time>2021-07-23T08:19:50Z</time>
      </trkpt>
      <trkpt lat="45.56874" lon="2.75724">
        <ele>1105.9</ele>
        <time>2021-07-23T08:20:01Z</time>
      </trkpt>
      <trkpt lat="45.56878" lon="2.75738">
        <ele>1106.2</ele>
        <time>2021-07-23T08:20:16Z</time>
      </trkpt>
      <trkpt lat="45.56883" lon="2.75746">
        <ele>1106.3</ele>
        <time>2021-07-23T08:20:25Z</time>
      </trkpt>
      <trkpt lat="45.5689" lon="2.75756">
        <ele>1106.1</ele>
        <time>2021-07-23T08:20:36Z</time>
      </trkpt>
      <trkpt lat="45.56896" lon="2.75764">
        <ele>1105.8</ele>
        <time>2021-07-23T08:20:50Z</time>
      </trkpt>
      <trkpt lat="45.569" lon="2.75764">
        <ele>1105.7</ele>
        <time>2021-07-23T08:21:03Z</time>
      </trkpt>
      <trkpt lat="45.56908" lon="2.75765">
        <ele>1105.6</ele>
        <time>2021-07-23T08:21:17Z</time>
      </trkpt>
      <trkpt lat="45.56917" lon="2.75768">
        <ele>1105.3</ele>
        <time>2021-07-23T08:21:31Z</time>
      </trkpt>
      <trkpt lat="45.56925" lon="2.75768">
        <ele>1105.6</ele>
        <time>2021-07-23T08:21:46Z</time>
      </trkpt>
      <trkpt lat="45.56926" lon="2.75768">
        <ele>1105.7</ele>
        <time>2021-07-23T08:21:58Z</time>
      </trkpt>
      <trkpt lat="45.5693" lon="2.75767">
        <ele>1105.9</ele>
        <time>2021-07-23T08:22:19Z</time>
      </trkpt>
      <trkpt lat="45.56932" lon="2.75768">
        <ele>1105.9</ele>
        <time>2021-07-23T08:22:40Z</time>
      </trkpt>
      <trkpt lat="45.56931" lon="2.75766">
        <ele>1106.1</ele>
        <time>2021-07-23T08:23:07Z</time>
      </trkpt>
      <trkpt lat="45.56931" lon="2.75763">
        <ele>1106.5</ele>
        <time>2021-07-23T08:23:24Z</time>
      </trkpt>
      <trkpt lat="45.56932" lon="2.75756">
        <ele>1107.2</ele>
        <time>2021-07-23T08:23:39Z</time>
      </trkpt>
      <trkpt lat="45.56936" lon="2.75744">
        <ele>1109</ele>
        <time>2021-07-23T08:23:57Z</time>
      </trkpt>
      <trkpt lat="45.56939" lon="2.75738">
        <ele>1110</ele>
        <time>2021-07-23T08:24:09Z</time>
      </trkpt>
      <trkpt lat="45.56945" lon="2.75732">
        <ele>1111.6</ele>
        <time>2021-07-23T08:24:25Z</time>
      </trkpt>
      <trkpt lat="45.56953" lon="2.75723">
        <ele>1113.8</ele>
        <time>2021-07-23T08:24:41Z</time>
      </trkpt>
      <trkpt lat="45.56961" lon="2.75717">
        <ele>1116.1</ele>
        <time>2021-07-23T08:24:56Z</time>
      </trkpt>
      <trkpt lat="45.56965" lon="2.75711">
        <ele>1117.8</ele>
        <time>2021-07-23T08:25:10Z</time>
      </trkpt>
      <trkpt lat="45.56968" lon="2.75702">
        <ele>1120.1</ele>
        <time>2021-07-23T08:25:27Z</time>
      </trkpt>
      <trkpt lat="45.56971" lon="2.75694">
        <ele>1122.1</ele>
        <time>2021-07-23T08:25:43Z</time>
      </trkpt>
      <trkpt lat="45.56976" lon="2.75686">
        <ele>1124.9</ele>
        <time>2021-07-23T08:26:03Z</time>
      </trkpt>
      <trkpt lat="45.5698" lon="2.75678">
        <ele>1127.4</ele>
        <time>2021-07-23T08:26:17Z</time>
      </trkpt>
      <trkpt lat="45.56981" lon="2.75673">
        <ele>1129.1</ele>
        <time>2021-07-23T08:26:31Z</time>
      </trkpt>
      <trkpt lat="45.56984" lon="2.75667">
        <ele>1131.1</ele>
        <time>2021-07-23T08:26:43Z</time>
      </trkpt>
      <trkpt lat="45.56985" lon="2.7566">
        <ele>1131.4</ele>
        <time>2021-07-23T08:26:59Z</time>
      </trkpt>
      <trkpt lat="45.56986" lon="2.75654">
        <ele>1131.9</ele>
        <time>2021-07-23T08:27:12Z</time>
      </trkpt>
      <trkpt lat="45.56986" lon="2.75647">
        <ele>1132</ele>
        <time>2021-07-23T08:27:25Z</time>
      </trkpt>
      <trkpt lat="45.56984" lon="2.75638">
        <ele>1131.8</ele>
        <time>2021-07-23T08:27:41Z</time>
      </trkpt>
      <trkpt lat="45.56985" lon="2.75637">
        <ele>1132.2</ele>
        <time>2021-07-23T08:27:52Z</time>
      </trkpt>
      <trkpt lat="45.56987" lon="2.75633">
        <ele>1132.9</ele>
        <time>2021-07-23T08:28:03Z</time>
      </trkpt>
      <trkpt lat="45.56992" lon="2.75635">
        <ele>1134.3</ele>
        <time>2021-07-23T08:28:16Z</time>
      </trkpt>
      <trkpt lat="45.56993" lon="2.75629">
        <ele>1134.7</ele>
        <time>2021-07-23T08:28:28Z</time>
      </trkpt>
      <trkpt lat="45.56995" lon="2.75623">
        <ele>1135.6</ele>
        <time>2021-07-23T08:28:41Z</time>
      </trkpt>
      <trkpt lat="45.56999" lon="2.75621">
        <ele>1136.7</ele>
        <time>2021-07-23T08:28:53Z</time>
      </trkpt>
      <trkpt lat="45.57005" lon="2.75618">
        <ele>1135.8</ele>
        <time>2021-07-23T08:29:05Z</time>
      </trkpt>
      <trkpt lat="45.57006" lon="2.75612">
        <ele>1135.8</ele>
        <time>2021-07-23T08:29:15Z</time>
      </trkpt>
      <trkpt lat="45.56999" lon="2.75607">
        <ele>1137.4</ele>
        <time>2021-07-23T08:29:27Z</time>
      </trkpt>
      <trkpt lat="45.56992" lon="2.75602">
        <ele>1135.2</ele>
        <time>2021-07-23T08:29:42Z</time>
      </trkpt>
      <trkpt lat="45.56989" lon="2.75605">
        <ele>1134.2</ele>
        <time>2021-07-23T08:29:54Z</time>
      </trkpt>
      <trkpt lat="45.56989" lon="2.75607">
        <ele>1134.1</ele>
        <time>2021-07-23T08:30:39Z</time>
      </trkpt>
      <trkpt lat="45.56989" lon="2.75607">
        <ele>1134.1</ele>
        <time>2021-07-23T08:31:28Z</time>
      </trkpt>
      <trkpt lat="45.56989" lon="2.75606">
        <ele>1134.1</ele>
        <time>2021-07-23T08:32:12Z</time>
      </trkpt>
      <trkpt lat="45.56989" lon="2.75606">
        <ele>1134</ele>
        <time>2021-07-23T08:32:51Z</time>
      </trkpt>
      <trkpt lat="45.56989" lon="2.75606">
        <ele>1134</ele>
        <time>2021-07-23T08:33:28Z</time>
      </trkpt>
      <trkpt lat="45.56989" lon="2.75606">
        <ele>1134.1</ele>
        <time>2021-07-23T08:34:08Z</time>
      </trkpt>
      <trkpt lat="45.56989" lon="2.75606">
        <ele>1134.3</ele>
        <time>2021-07-23T08:34:39Z</time>
      </trkpt>
      <trkpt lat="45.5699" lon="2.75606">
        <ele>1134.4</ele>
        <time>2021-07-23T08:35:19Z</time>
      </trkpt>
      <trkpt lat="45.5699" lon="2.75606">
        <ele>1134.5</ele>
        <time>2021-07-23T08:36:05Z</time>
      </trkpt>
      <trkpt lat="45.5699" lon="2.75606">
        <ele>1134.3</ele>
        <time>2021-07-23T08:36:53Z</time>
      </trkpt>
      <trkpt lat="45.56989" lon="2.75606">
        <ele>1134.2</ele>
        <time>2021-07-23T08:37:29Z</time>
      </trkpt>
      <trkpt lat="45.56989" lon="2.75606">
        <ele>1134.2</ele>
        <time>2021-07-23T08:38:07Z</time>
      </trkpt>
      <trkpt lat="45.5699" lon="2.75606">
        <ele>1134.6</ele>
        <time>2021-07-23T08:38:51Z</time>
      </trkpt>
      <trkpt lat="45.5699" lon="2.75606">
        <ele>1134.6</ele>
        <time>2021-07-23T08:39:35Z</time>
      </trkpt>
      <trkpt lat="45.5699" lon="2.75606">
        <ele>1134.4</ele>
        <time>2021-07-23T08:40:14Z</time>
      </trkpt>
      <trkpt lat="45.5699" lon="2.75606">
        <ele>1134.4</ele>
        <time>2021-07-23T08:40:53Z</time>
      </trkpt>
      <trkpt lat="45.5699" lon="2.75607">
        <ele>1134.4</ele>
        <time>2021-07-23T08:41:30Z</time>
      </trkpt>
      <trkpt lat="45.5699" lon="2.75606">
        <ele>1134.6</ele>
        <time>2021-07-23T08:42:12Z</time>
      </trkpt>
      <trkpt lat="45.5699" lon="2.75606">
        <ele>1134.4</ele>
        <time>2021-07-23T08:42:54Z</time>
      </trkpt>
      <trkpt lat="45.56989" lon="2.75601">
        <ele>1134.3</ele>
        <time>2021-07-23T08:43:16Z</time>
      </trkpt>
      <trkpt lat="45.5699" lon="2.75598">
        <ele>1134.7</ele>
        <time>2021-07-23T08:43:29Z</time>
      </trkpt>
      <trkpt lat="45.56994" lon="2.75605">
        <ele>1136</ele>
        <time>2021-07-23T08:43:39Z</time>
      </trkpt>
      <trkpt lat="45.57" lon="2.75608">
        <ele>1137.7</ele>
        <time>2021-07-23T08:43:50Z</time>
      </trkpt>
      <trkpt lat="45.57007" lon="2.75611">
        <ele>1135.3</ele>
        <time>2021-07-23T08:44:03Z</time>
      </trkpt>
      <trkpt lat="45.57002" lon="2.75616">
        <ele>1136.8</ele>
        <time>2021-07-23T08:44:15Z</time>
      </trkpt>
      <trkpt lat="45.56998" lon="2.75619">
        <ele>1136.6</ele>
        <time>2021-07-23T08:44:29Z</time>
      </trkpt>
      <trkpt lat="45.56996" lon="2.75622">
        <ele>1135.7</ele>
        <time>2021-07-23T08:44:42Z</time>
      </trkpt>
      <trkpt lat="45.56993" lon="2.75628">
        <ele>1134.6</ele>
        <time>2021-07-23T08:44:56Z</time>
      </trkpt>
      <trkpt lat="45.56992" lon="2.75632">
        <ele>1134.4</ele>
        <time>2021-07-23T08:45:07Z</time>
      </trkpt>
      <trkpt lat="45.56989" lon="2.75629">
        <ele>1133.4</ele>
        <time>2021-07-23T08:45:19Z</time>
      </trkpt>
      <trkpt lat="45.56986" lon="2.75631">
        <ele>1132.4</ele>
        <time>2021-07-23T08:45:34Z</time>
      </trkpt>
      <trkpt lat="45.56983" lon="2.7564">
        <ele>1131.4</ele>
        <time>2021-07-23T08:45:51Z</time>
      </trkpt>
      <trkpt lat="45.56982" lon="2.75648">
        <ele>1131</ele>
        <time>2021-07-23T08:46:06Z</time>
      </trkpt>
      <trkpt lat="45.56982" lon="2.75657">
        <ele>1130.9</ele>
        <time>2021-07-23T08:46:21Z</time>
      </trkpt>
      <trkpt lat="45.56983" lon="2.75667">
        <ele>1130.9</ele>
        <time>2021-07-23T08:46:37Z</time>
      </trkpt>
      <trkpt lat="45.56981" lon="2.75679">
        <ele>1127.4</ele>
        <time>2021-07-23T08:46:56Z</time>
      </trkpt>
      <trkpt lat="45.56977" lon="2.75686">
        <ele>1125</ele>
        <time>2021-07-23T08:47:14Z</time>
      </trkpt>
      <trkpt lat="45.56974" lon="2.75694">
        <ele>1122.7</ele>
        <time>2021-07-23T08:47:34Z</time>
      </trkpt>
      <trkpt lat="45.56972" lon="2.75701">
        <ele>1120.9</ele>
        <time>2021-07-23T08:47:47Z</time>
      </trkpt>
      <trkpt lat="45.5697" lon="2.75707">
        <ele>1119.3</ele>
        <time>2021-07-23T08:47:59Z</time>
      </trkpt>
      <trkpt lat="45.56967" lon="2.75719">
        <ele>1116.4</ele>
        <time>2021-07-23T08:48:13Z</time>
      </trkpt>
      <trkpt lat="45.56961" lon="2.75732">
        <ele>1113.1</ele>
        <time>2021-07-23T08:48:26Z</time>
      </trkpt>
      <trkpt lat="45.56959" lon="2.75741">
        <ele>1111.3</ele>
        <time>2021-07-23T08:48:37Z</time>
      </trkpt>
      <trkpt lat="45.56956" lon="2.75748">
        <ele>1109.7</ele>
        <time>2021-07-23T08:48:49Z</time>
      </trkpt>
      <trkpt lat="45.56955" lon="2.7575">
        <ele>1109.3</ele>
        <time>2021-07-23T08:48:52Z</time>
      </trkpt>
      <trkpt lat="45.56951" lon="2.75757">
        <ele>1108.2</ele>
        <time>2021-07-23T08:49:01Z</time>
      </trkpt>
      <trkpt lat="45.56947" lon="2.75767">
        <ele>1106.6</ele>
        <time>2021-07-23T08:49:12Z</time>
      </trkpt>
      <trkpt lat="45.56938" lon="2.75774">
        <ele>1105.4</ele>
        <time>2021-07-23T08:49:25Z</time>
      </trkpt>
      <trkpt lat="45.56928" lon="2.75774">
        <ele>1105.1</ele>
        <time>2021-07-23T08:49:44Z</time>
      </trkpt>
      <trkpt lat="45.56926" lon="2.75773">
        <ele>1105.1</ele>
        <time>2021-07-23T08:49:59Z</time>
      </trkpt>
      <trkpt lat="45.56924" lon="2.75774">
        <ele>1105</ele>
        <time>2021-07-23T08:50:17Z</time>
      </trkpt>
      <trkpt lat="45.56919" lon="2.75767">
        <ele>1105.4</ele>
        <time>2021-07-23T08:50:40Z</time>
      </trkpt>
      <trkpt lat="45.5692" lon="2.75769">
        <ele>1105.4</ele>
        <time>2021-07-23T08:51:01Z</time>
      </trkpt>
      <trkpt lat="45.56917" lon="2.7577">
        <ele>1105.1</ele>
        <time>2021-07-23T08:51:20Z</time>
      </trkpt>
      <trkpt lat="45.56911" lon="2.75774">
        <ele>1104.8</ele>
        <time>2021-07-23T08:51:32Z</time>
      </trkpt>
      <trkpt lat="45.56907" lon="2.75773">
        <ele>1105</ele>
        <time>2021-07-23T08:51:53Z</time>
      </trkpt>
      <trkpt lat="45.56907" lon="2.75774">
        <ele>1104.9</ele>
        <time>2021-07-23T08:52:08Z</time>
      </trkpt>
      <trkpt lat="45.56906" lon="2.75773">
        <ele>1105</ele>
        <time>2021-07-23T08:52:20Z</time>
      </trkpt>
      <trkpt lat="45.56906" lon="2.75771">
        <ele>1105.2</ele>
        <time>2021-07-23T08:52:32Z</time>
      </trkpt>
      <trkpt lat="45.56904" lon="2.75777">
        <ele>1104.8</ele>
        <time>2021-07-23T08:52:45Z</time>
      </trkpt>
      <trkpt lat="45.56911" lon="2.75784">
        <ele>1104</ele>
        <time>2021-07-23T08:53:00Z</time>
      </trkpt>
      <trkpt lat="45.56915" lon="2.7579">
        <ele>1103.2</ele>
        <time>2021-07-23T08:53:13Z</time>
      </trkpt>
      <trkpt lat="45.56916" lon="2.75797">
        <ele>1102.5</ele>
        <time>2021-07-23T08:53:27Z</time>
      </trkpt>
      <trkpt lat="45.56919" lon="2.75806">
        <ele>1101.6</ele>
        <time>2021-07-23T08:53:41Z</time>
      </trkpt>
      <trkpt lat="45.56923" lon="2.75816">
        <ele>1100.6</ele>
        <time>2021-07-23T08:53:54Z</time>
      </trkpt>
      <trkpt lat="45.56931" lon="2.75831">
        <ele>1098.9</ele>
        <time>2021-07-23T08:54:09Z</time>
      </trkpt>
      <trkpt lat="45.56937" lon="2.75839">
        <ele>1098.3</ele>
        <time>2021-07-23T08:54:20Z</time>
      </trkpt>
      <trkpt lat="45.56948" lon="2.75857">
        <ele>1097.4</ele>
        <time>2021-07-23T08:54:36Z</time>
      </trkpt>
      <trkpt lat="45.56959" lon="2.75875">
        <ele>1096.3</ele>
        <time>2021-07-23T08:54:50Z</time>
      </trkpt>
      <trkpt lat="45.56963" lon="2.75881">
        <ele>1095.8</ele>
        <time>2021-07-23T08:55:03Z</time>
      </trkpt>
      <trkpt lat="45.56975" lon="2.75891">
        <ele>1094.8</ele>
        <time>2021-07-23T08:55:19Z</time>
      </trkpt>
      <trkpt lat="45.56985" lon="2.75897">
        <ele>1093.9</ele>
        <time>2021-07-23T08:55:33Z</time>
      </trkpt>
      <trkpt lat="45.56994" lon="2.75899">
        <ele>1093.4</ele>
        <time>2021-07-23T08:55:46Z</time>
      </trkpt>
      <trkpt lat="45.57006" lon="2.75904">
        <ele>1091.7</ele>
        <time>2021-07-23T08:55:59Z</time>
      </trkpt>
      <trkpt lat="45.57017" lon="2.75904">
        <ele>1089.9</ele>
        <time>2021-07-23T08:56:13Z</time>
      </trkpt>
      <trkpt lat="45.57025" lon="2.759">
        <ele>1088.7</ele>
        <time>2021-07-23T08:56:26Z</time>
      </trkpt>
      <trkpt lat="45.57025" lon="2.75907">
        <ele>1088.2</ele>
        <time>2021-07-23T08:56:39Z</time>
      </trkpt>
      <trkpt lat="45.57032" lon="2.75918">
        <ele>1086.4</ele>
        <time>2021-07-23T08:56:47Z</time>
      </trkpt>
      <trkpt lat="45.57038" lon="2.75932">
        <ele>1086</ele>
        <time>2021-07-23T08:56:59Z</time>
      </trkpt>
      <trkpt lat="45.57043" lon="2.75938">
        <ele>1085.5</ele>
        <time>2021-07-23T08:57:10Z</time>
      </trkpt>
      <trkpt lat="45.57049" lon="2.75942">
        <ele>1084.8</ele>
        <time>2021-07-23T08:57:29Z</time>
      </trkpt>
      <trkpt lat="45.57046" lon="2.75953">
        <ele>1085.9</ele>
        <time>2021-07-23T08:57:42Z</time>
      </trkpt>
      <trkpt lat="45.57046" lon="2.75967">
        <ele>1086.7</ele>
        <time>2021-07-23T08:57:55Z</time>
      </trkpt>
      <trkpt lat="45.57051" lon="2.75974">
        <ele>1086.6</ele>
        <time>2021-07-23T08:58:13Z</time>
      </trkpt>
      <trkpt lat="45.57055" lon="2.75982">
        <ele>1086.8</ele>
        <time>2021-07-23T08:58:30Z</time>
      </trkpt>
      <trkpt lat="45.57063" lon="2.75993">
        <ele>1086.9</ele>
        <time>2021-07-23T08:58:45Z</time>
      </trkpt>
      <trkpt lat="45.57071" lon="2.76006">
        <ele>1087.4</ele>
        <time>2021-07-23T08:59:00Z</time>
      </trkpt>
      <trkpt lat="45.57076" lon="2.76018">
        <ele>1087.9</ele>
        <time>2021-07-23T08:59:15Z</time>
      </trkpt>
      <trkpt lat="45.57082" lon="2.76029">
        <ele>1088.5</ele>
        <time>2021-07-23T08:59:29Z</time>
      </trkpt>
      <trkpt lat="45.57086" lon="2.76038">
        <ele>1089.3</ele>
        <time>2021-07-23T08:59:45Z</time>
      </trkpt>
      <trkpt lat="45.57093" lon="2.76052">
        <ele>1090.7</ele>
        <time>2021-07-23T08:59:59Z</time>
      </trkpt>
      <trkpt lat="45.57101" lon="2.76065">
        <ele>1092.1</ele>
        <time>2021-07-23T09:00:12Z</time>
      </trkpt>
      <trkpt lat="45.57109" lon="2.76079">
        <ele>1093.5</ele>
        <time>2021-07-23T09:00:24Z</time>
      </trkpt>
      <trkpt lat="45.57116" lon="2.76093">
        <ele>1094.6</ele>
        <time>2021-07-23T09:00:35Z</time>
      </trkpt>
      <trkpt lat="45.57122" lon="2.76102">
        <ele>1095.3</ele>
        <time>2021-07-23T09:00:45Z</time>
      </trkpt>
      <trkpt lat="45.5713" lon="2.76116">
        <ele>1096.3</ele>
        <time>2021-07-23T09:00:58Z</time>
      </trkpt>
      <trkpt lat="45.57136" lon="2.76129">
        <ele>1097.4</ele>
        <time>2021-07-23T09:01:10Z</time>
      </trkpt>
      <trkpt lat="45.57143" lon="2.76141">
        <ele>1098.5</ele>
        <time>2021-07-23T09:01:21Z</time>
      </trkpt>
      <trkpt lat="45.57151" lon="2.76154">
        <ele>1099.9</ele>
        <time>2021-07-23T09:01:33Z</time>
      </trkpt>
      <trkpt lat="45.57158" lon="2.76167">
        <ele>1101.3</ele>
        <time>2021-07-23T09:01:45Z</time>
      </trkpt>
      <trkpt lat="45.57166" lon="2.76182">
        <ele>1102.3</ele>
        <time>2021-07-23T09:01:58Z</time>
      </trkpt>
      <trkpt lat="45.57175" lon="2.76196">
        <ele>1103.6</ele>
        <time>2021-07-23T09:02:11Z</time>
      </trkpt>
      <trkpt lat="45.5718" lon="2.76208">
        <ele>1104.5</ele>
        <time>2021-07-23T09:02:23Z</time>
      </trkpt>
      <trkpt lat="45.57186" lon="2.7622">
        <ele>1105.5</ele>
        <time>2021-07-23T09:02:34Z</time>
      </trkpt>
      <trkpt lat="45.57192" lon="2.76233">
        <ele>1106.5</ele>
        <time>2021-07-23T09:02:45Z</time>
      </trkpt>
      <trkpt lat="45.57194" lon="2.76243">
        <ele>1107.1</ele>
        <time>2021-07-23T09:02:54Z</time>
      </trkpt>
      <trkpt lat="45.57195" lon="2.76245">
        <ele>1107.2</ele>
        <time>2021-07-23T09:02:56Z</time>
      </trkpt>
      <trkpt lat="45.57198" lon="2.76265">
        <ele>1109.5</ele>
        <time>2021-07-23T09:03:10Z</time>
      </trkpt>
      <trkpt lat="45.57199" lon="2.76277">
        <ele>1111.1</ele>
        <time>2021-07-23T09:03:21Z</time>
      </trkpt>
      <trkpt lat="45.57204" lon="2.76287">
        <ele>1112.9</ele>
        <time>2021-07-23T09:03:30Z</time>
      </trkpt>
      <trkpt lat="45.57207" lon="2.76293">
        <ele>1114</ele>
        <time>2021-07-23T09:03:36Z</time>
      </trkpt>
      <trkpt lat="45.57216" lon="2.76296">
        <ele>1115.5</ele>
        <time>2021-07-23T09:03:50Z</time>
      </trkpt>
      <trkpt lat="45.57221" lon="2.76296">
        <ele>1116.1</ele>
        <time>2021-07-23T09:03:55Z</time>
      </trkpt>
      <trkpt lat="45.57232" lon="2.76299">
        <ele>1117.7</ele>
        <time>2021-07-23T09:04:09Z</time>
      </trkpt>
      <trkpt lat="45.57239" lon="2.76304">
        <ele>1119.2</ele>
        <time>2021-07-23T09:04:21Z</time>
      </trkpt>
      <trkpt lat="45.57241" lon="2.76311">
        <ele>1120.2</ele>
        <time>2021-07-23T09:04:33Z</time>
      </trkpt>
      <trkpt lat="45.5724" lon="2.76319">
        <ele>1121.1</ele>
        <time>2021-07-23T09:04:51Z</time>
      </trkpt>
      <trkpt lat="45.57241" lon="2.76321">
        <ele>1121.4</ele>
        <time>2021-07-23T09:05:05Z</time>
      </trkpt>
      <trkpt lat="45.57236" lon="2.76328">
        <ele>1121.7</ele>
        <time>2021-07-23T09:05:25Z</time>
      </trkpt>
      <trkpt lat="45.57229" lon="2.76335">
        <ele>1122</ele>
        <time>2021-07-23T09:05:38Z</time>
      </trkpt>
      <trkpt lat="45.57224" lon="2.7634">
        <ele>1122.5</ele>
        <time>2021-07-23T09:05:48Z</time>
      </trkpt>
      <trkpt lat="45.57216" lon="2.76351">
        <ele>1124</ele>
        <time>2021-07-23T09:06:04Z</time>
      </trkpt>
      <trkpt lat="45.57208" lon="2.7636">
        <ele>1125.2</ele>
        <time>2021-07-23T09:06:19Z</time>
      </trkpt>
      <trkpt lat="45.57199" lon="2.76371">
        <ele>1126.8</ele>
        <time>2021-07-23T09:06:36Z</time>
      </trkpt>
      <trkpt lat="45.5719" lon="2.76374">
        <ele>1126.5</ele>
        <time>2021-07-23T09:06:49Z</time>
      </trkpt>
      <trkpt lat="45.57179" lon="2.76381">
        <ele>1126.9</ele>
        <time>2021-07-23T09:07:06Z</time>
      </trkpt>
      <trkpt lat="45.57172" lon="2.76388">
        <ele>1127.9</ele>
        <time>2021-07-23T09:07:19Z</time>
      </trkpt>
      <trkpt lat="45.57165" lon="2.76393">
        <ele>1128.3</ele>
        <time>2021-07-23T09:07:30Z</time>
      </trkpt>
      <trkpt lat="45.57158" lon="2.764">
        <ele>1129.3</ele>
        <time>2021-07-23T09:07:42Z</time>
      </trkpt>
      <trkpt lat="45.5715" lon="2.76406">
        <ele>1129.9</ele>
        <time>2021-07-23T09:07:55Z</time>
      </trkpt>
      <trkpt lat="45.57144" lon="2.76414">
        <ele>1131.4</ele>
        <time>2021-07-23T09:08:08Z</time>
      </trkpt>
      <trkpt lat="45.57137" lon="2.76419">
        <ele>1131.9</ele>
        <time>2021-07-23T09:08:19Z</time>
      </trkpt>
      <trkpt lat="45.57128" lon="2.76429">
        <ele>1132.7</ele>
        <time>2021-07-23T09:08:34Z</time>
      </trkpt>
      <trkpt lat="45.57127" lon="2.76446">
        <ele>1135</ele>
        <time>2021-07-23T09:08:46Z</time>
      </trkpt>
      <trkpt lat="45.57128" lon="2.76462">
        <ele>1137.6</ele>
        <time>2021-07-23T09:08:59Z</time>
      </trkpt>
      <trkpt lat="45.5713" lon="2.76464">
        <ele>1138.1</ele>
        <time>2021-07-23T09:09:11Z</time>
      </trkpt>
      <trkpt lat="45.57136" lon="2.76465">
        <ele>1138.7</ele>
        <time>2021-07-23T09:09:22Z</time>
      </trkpt>
      <trkpt lat="45.57146" lon="2.76465">
        <ele>1139.7</ele>
        <time>2021-07-23T09:09:35Z</time>
      </trkpt>
      <trkpt lat="45.57155" lon="2.76464">
        <ele>1140.3</ele>
        <time>2021-07-23T09:09:47Z</time>
      </trkpt>
      <trkpt lat="45.57167" lon="2.76461">
        <ele>1141</ele>
        <time>2021-07-23T09:10:02Z</time>
      </trkpt>
      <trkpt lat="45.57179" lon="2.76459">
        <ele>1142</ele>
        <time>2021-07-23T09:10:18Z</time>
      </trkpt>
      <trkpt lat="45.57187" lon="2.76459">
        <ele>1143</ele>
        <time>2021-07-23T09:10:31Z</time>
      </trkpt>
      <trkpt lat="45.57198" lon="2.76452">
        <ele>1143.3</ele>
        <time>2021-07-23T09:10:45Z</time>
      </trkpt>
      <trkpt lat="45.57204" lon="2.76451">
        <ele>1143.7</ele>
        <time>2021-07-23T09:10:52Z</time>
      </trkpt>
      <trkpt lat="45.57216" lon="2.76449">
        <ele>1144.8</ele>
        <time>2021-07-23T09:11:05Z</time>
      </trkpt>
      <trkpt lat="45.57228" lon="2.76446">
        <ele>1145.7</ele>
        <time>2021-07-23T09:11:20Z</time>
      </trkpt>
      <trkpt lat="45.57239" lon="2.76444">
        <ele>1146.6</ele>
        <time>2021-07-23T09:11:33Z</time>
      </trkpt>
      <trkpt lat="45.5725" lon="2.76445">
        <ele>1148.1</ele>
        <time>2021-07-23T09:11:46Z</time>
      </trkpt>
      <trkpt lat="45.57262" lon="2.76442">
        <ele>1148.9</ele>
        <time>2021-07-23T09:12:00Z</time>
      </trkpt>
      <trkpt lat="45.57274" lon="2.76449">
        <ele>1151.3</ele>
        <time>2021-07-23T09:12:16Z</time>
      </trkpt>
      <trkpt lat="45.57276" lon="2.7645">
        <ele>1151.7</ele>
        <time>2021-07-23T09:12:19Z</time>
      </trkpt>
      <trkpt lat="45.57286" lon="2.76455">
        <ele>1153.5</ele>
        <time>2021-07-23T09:12:33Z</time>
      </trkpt>
      <trkpt lat="45.57297" lon="2.76466">
        <ele>1156</ele>
        <time>2021-07-23T09:12:51Z</time>
      </trkpt>
      <trkpt lat="45.57305" lon="2.76474">
        <ele>1157.9</ele>
        <time>2021-07-23T09:13:03Z</time>
      </trkpt>
      <trkpt lat="45.57312" lon="2.76481">
        <ele>1159.3</ele>
        <time>2021-07-23T09:13:18Z</time>
      </trkpt>
      <trkpt lat="45.5732" lon="2.76491">
        <ele>1161.1</ele>
        <time>2021-07-23T09:13:31Z</time>
      </trkpt>
      <trkpt lat="45.57331" lon="2.76501">
        <ele>1162.9</ele>
        <time>2021-07-23T09:13:44Z</time>
      </trkpt>
      <trkpt lat="45.57343" lon="2.76508">
        <ele>1163.5</ele>
        <time>2021-07-23T09:13:57Z</time>
      </trkpt>
      <trkpt lat="45.57351" lon="2.76515">
        <ele>1163.9</ele>
        <time>2021-07-23T09:14:09Z</time>
      </trkpt>
      <trkpt lat="45.57358" lon="2.76524">
        <ele>1164.4</ele>
        <time>2021-07-23T09:14:18Z</time>
      </trkpt>
      <trkpt lat="45.57367" lon="2.7654">
        <ele>1165.2</ele>
        <time>2021-07-23T09:14:32Z</time>
      </trkpt>
      <trkpt lat="45.57374" lon="2.76553">
        <ele>1165.7</ele>
        <time>2021-07-23T09:14:42Z</time>
      </trkpt>
      <trkpt lat="45.57381" lon="2.76567">
        <ele>1166.2</ele>
        <time>2021-07-23T09:14:54Z</time>
      </trkpt>
      <trkpt lat="45.57389" lon="2.76584">
        <ele>1166.7</ele>
        <time>2021-07-23T09:15:06Z</time>
      </trkpt>
      <trkpt lat="45.57396" lon="2.76603">
        <ele>1166.1</ele>
        <time>2021-07-23T09:15:18Z</time>
      </trkpt>
      <trkpt lat="45.57401" lon="2.76614">
        <ele>1165.7</ele>
        <time>2021-07-23T09:15:25Z</time>
      </trkpt>
      <trkpt lat="45.57409" lon="2.76622">
        <ele>1165</ele>
        <time>2021-07-23T09:15:37Z</time>
      </trkpt>
      <trkpt lat="45.5741" lon="2.76621">
        <ele>1165</ele>
        <time>2021-07-23T09:15:38Z</time>
      </trkpt>
      <trkpt lat="45.57414" lon="2.76607">
        <ele>1164.9</ele>
        <time>2021-07-23T09:15:51Z</time>
      </trkpt>
      <trkpt lat="45.57422" lon="2.76592">
        <ele>1164.5</ele>
        <time>2021-07-23T09:16:03Z</time>
      </trkpt>
      <trkpt lat="45.57425" lon="2.76589">
        <ele>1164.2</ele>
        <time>2021-07-23T09:16:07Z</time>
      </trkpt>
      <trkpt lat="45.57435" lon="2.76579">
        <ele>1163.3</ele>
        <time>2021-07-23T09:16:21Z</time>
      </trkpt>
      <trkpt lat="45.57447" lon="2.76573">
        <ele>1162.2</ele>
        <time>2021-07-23T09:16:35Z</time>
      </trkpt>
      <trkpt lat="45.57458" lon="2.76566">
        <ele>1161.2</ele>
        <time>2021-07-23T09:16:48Z</time>
      </trkpt>
      <trkpt lat="45.57471" lon="2.76554">
        <ele>1160.1</ele>
        <time>2021-07-23T09:17:02Z</time>
      </trkpt>
      <trkpt lat="45.57477" lon="2.76547">
        <ele>1159.6</ele>
        <time>2021-07-23T09:17:13Z</time>
      </trkpt>
      <trkpt lat="45.57481" lon="2.76543">
        <ele>1159.3</ele>
        <time>2021-07-23T09:17:26Z</time>
      </trkpt>
      <trkpt lat="45.57486" lon="2.76541">
        <ele>1158.9</ele>
        <time>2021-07-23T09:17:38Z</time>
      </trkpt>
      <trkpt lat="45.57494" lon="2.76534">
        <ele>1158.3</ele>
        <time>2021-07-23T09:17:51Z</time>
      </trkpt>
      <trkpt lat="45.57512" lon="2.76526">
        <ele>1157.3</ele>
        <time>2021-07-23T09:18:07Z</time>
      </trkpt>
      <trkpt lat="45.57529" lon="2.76516">
        <ele>1156.4</ele>
        <time>2021-07-23T09:18:23Z</time>
      </trkpt>
      <trkpt lat="45.57538" lon="2.76511">
        <ele>1156</ele>
        <time>2021-07-23T09:18:33Z</time>
      </trkpt>
      <trkpt lat="45.5754" lon="2.76511">
        <ele>1155.9</ele>
        <time>2021-07-23T09:18:35Z</time>
      </trkpt>
      <trkpt lat="45.57555" lon="2.76504">
        <ele>1155.2</ele>
        <time>2021-07-23T09:18:50Z</time>
      </trkpt>
      <trkpt lat="45.5757" lon="2.76494">
        <ele>1155</ele>
        <time>2021-07-23T09:19:04Z</time>
      </trkpt>
      <trkpt lat="45.57581" lon="2.76479">
        <ele>1155.1</ele>
        <time>2021-07-23T09:19:17Z</time>
      </trkpt>
      <trkpt lat="45.57591" lon="2.76463">
        <ele>1155.6</ele>
        <time>2021-07-23T09:19:31Z</time>
      </trkpt>
      <trkpt lat="45.57595" lon="2.7644">
        <ele>1156.8</ele>
        <time>2021-07-23T09:19:47Z</time>
      </trkpt>
      <trkpt lat="45.57594" lon="2.76422">
        <ele>1157.7</ele>
        <time>2021-07-23T09:19:59Z</time>
      </trkpt>
      <trkpt lat="45.57592" lon="2.76399">
        <ele>1159.9</ele>
        <time>2021-07-23T09:20:15Z</time>
      </trkpt>
      <trkpt lat="45.57589" lon="2.76377">
        <ele>1162.3</ele>
        <time>2021-07-23T09:20:31Z</time>
      </trkpt>
      <trkpt lat="45.57587" lon="2.76356">
        <ele>1164.5</ele>
        <time>2021-07-23T09:20:46Z</time>
      </trkpt>
      <trkpt lat="45.57587" lon="2.7634">
        <ele>1166.3</ele>
        <time>2021-07-23T09:20:59Z</time>
      </trkpt>
      <trkpt lat="45.57592" lon="2.7633">
        <ele>1167.5</ele>
        <time>2021-07-23T09:21:10Z</time>
      </trkpt>
      <trkpt lat="45.576" lon="2.76325">
        <ele>1168.3</ele>
        <time>2021-07-23T09:21:23Z</time>
      </trkpt>
      <trkpt lat="45.57608" lon="2.76316">
        <ele>1169.4</ele>
        <time>2021-07-23T09:21:37Z</time>
      </trkpt>
      <trkpt lat="45.57619" lon="2.76309">
        <ele>1170.3</ele>
        <time>2021-07-23T09:21:52Z</time>
      </trkpt>
      <trkpt lat="45.57621" lon="2.76294">
        <ele>1172.1</ele>
        <time>2021-07-23T09:22:04Z</time>
      </trkpt>
      <trkpt lat="45.57621" lon="2.76281">
        <ele>1173.8</ele>
        <time>2021-07-23T09:22:18Z</time>
      </trkpt>
      <trkpt lat="45.57621" lon="2.76266">
        <ele>1175.6</ele>
        <time>2021-07-23T09:22:32Z</time>
      </trkpt>
      <trkpt lat="45.57624" lon="2.76254">
        <ele>1177</ele>
        <time>2021-07-23T09:22:45Z</time>
      </trkpt>
      <trkpt lat="45.57625" lon="2.76245">
        <ele>1178.4</ele>
        <time>2021-07-23T09:22:59Z</time>
      </trkpt>
      <trkpt lat="45.57619" lon="2.76247">
        <ele>1178</ele>
        <time>2021-07-23T09:23:13Z</time>
      </trkpt>
      <trkpt lat="45.57619" lon="2.76245">
        <ele>1178.4</ele>
        <time>2021-07-23T09:23:26Z</time>
      </trkpt>
      <trkpt lat="45.5762" lon="2.76234">
        <ele>1180.3</ele>
        <time>2021-07-23T09:23:38Z</time>
      </trkpt>
      <trkpt lat="45.57622" lon="2.7622">
        <ele>1182.9</ele>
        <time>2021-07-23T09:23:52Z</time>
      </trkpt>
      <trkpt lat="45.57626" lon="2.76206">
        <ele>1185.5</ele>
        <time>2021-07-23T09:24:10Z</time>
      </trkpt>
      <trkpt lat="45.57629" lon="2.76191">
        <ele>1188.2</ele>
        <time>2021-07-23T09:24:26Z</time>
      </trkpt>
      <trkpt lat="45.57638" lon="2.7618">
        <ele>1190.3</ele>
        <time>2021-07-23T09:24:43Z</time>
      </trkpt>
      <trkpt lat="45.57643" lon="2.76167">
        <ele>1192.7</ele>
        <time>2021-07-23T09:24:58Z</time>
      </trkpt>
      <trkpt lat="45.5765" lon="2.76154">
        <ele>1194.8</ele>
        <time>2021-07-23T09:25:14Z</time>
      </trkpt>
      <trkpt lat="45.57657" lon="2.76142">
        <ele>1196.7</ele>
        <time>2021-07-23T09:25:29Z</time>
      </trkpt>
      <trkpt lat="45.57663" lon="2.76129">
        <ele>1198.8</ele>
        <time>2021-07-23T09:25:44Z</time>
      </trkpt>
      <trkpt lat="45.57668" lon="2.7612">
        <ele>1200.3</ele>
        <time>2021-07-23T09:25:58Z</time>
      </trkpt>
      <trkpt lat="45.57674" lon="2.76109">
        <ele>1202.1</ele>
        <time>2021-07-23T09:26:12Z</time>
      </trkpt>
      <trkpt lat="45.57677" lon="2.76102">
        <ele>1203.1</ele>
        <time>2021-07-23T09:26:23Z</time>
      </trkpt>
      <trkpt lat="45.57684" lon="2.76092">
        <ele>1204.8</ele>
        <time>2021-07-23T09:26:37Z</time>
      </trkpt>
      <trkpt lat="45.5769" lon="2.76079">
        <ele>1206.3</ele>
        <time>2021-07-23T09:26:52Z</time>
      </trkpt>
      <trkpt lat="45.57695" lon="2.7607">
        <ele>1206.4</ele>
        <time>2021-07-23T09:27:05Z</time>
      </trkpt>
      <trkpt lat="45.57702" lon="2.76062">
        <ele>1206.7</ele>
        <time>2021-07-23T09:27:21Z</time>
      </trkpt>
      <trkpt lat="45.5771" lon="2.76056">
        <ele>1207.3</ele>
        <time>2021-07-23T09:27:38Z</time>
      </trkpt>
      <trkpt lat="45.57719" lon="2.76046">
        <ele>1208.2</ele>
        <time>2021-07-23T09:27:52Z</time>
      </trkpt>
      <trkpt lat="45.57727" lon="2.76042">
        <ele>1209</ele>
        <time>2021-07-23T09:28:06Z</time>
      </trkpt>
      <trkpt lat="45.57737" lon="2.76037">
        <ele>1210.2</ele>
        <time>2021-07-23T09:28:21Z</time>
      </trkpt>
      <trkpt lat="45.57748" lon="2.76034">
        <ele>1211.5</ele>
        <time>2021-07-23T09:28:36Z</time>
      </trkpt>
      <trkpt lat="45.57755" lon="2.76034">
        <ele>1212.2</ele>
        <time>2021-07-23T09:28:49Z</time>
      </trkpt>
      <trkpt lat="45.5777" lon="2.76027">
        <ele>1214.1</ele>
        <time>2021-07-23T09:29:05Z</time>
      </trkpt>
      <trkpt lat="45.57783" lon="2.76021">
        <ele>1215.8</ele>
        <time>2021-07-23T09:29:21Z</time>
      </trkpt>
      <trkpt lat="45.57798" lon="2.76015">
        <ele>1217.6</ele>
        <time>2021-07-23T09:29:38Z</time>
      </trkpt>
      <trkpt lat="45.57812" lon="2.7601">
        <ele>1219.2</ele>
        <time>2021-07-23T09:29:53Z</time>
      </trkpt>
      <trkpt lat="45.57813" lon="2.76007">
        <ele>1219.6</ele>
        <time>2021-07-23T09:30:09Z</time>
      </trkpt>
      <trkpt lat="45.57813" lon="2.76007">
        <ele>1219.6</ele>
        <time>2021-07-23T09:30:11Z</time>
      </trkpt>
      <trkpt lat="45.57819" lon="2.75994">
        <ele>1218.6</ele>
        <time>2021-07-23T09:30:34Z</time>
      </trkpt>
      <trkpt lat="45.5782" lon="2.75994">
        <ele>1218.8</ele>
        <time>2021-07-23T09:30:54Z</time>
      </trkpt>
      <trkpt lat="45.57821" lon="2.75992">
        <ele>1218.4</ele>
        <time>2021-07-23T09:31:13Z</time>
      </trkpt>
      <trkpt lat="45.5782" lon="2.75994">
        <ele>1218.9</ele>
        <time>2021-07-23T09:31:38Z</time>
      </trkpt>
      <trkpt lat="45.57821" lon="2.75997">
        <ele>1220.1</ele>
        <time>2021-07-23T09:31:59Z</time>
      </trkpt>
      <trkpt lat="45.57823" lon="2.76">
        <ele>1221</ele>
        <time>2021-07-23T09:32:13Z</time>
      </trkpt>
      <trkpt lat="45.57824" lon="2.76">
        <ele>1221.1</ele>
        <time>2021-07-23T09:32:33Z</time>
      </trkpt>
      <trkpt lat="45.57824" lon="2.76001">
        <ele>1221.1</ele>
        <time>2021-07-23T09:32:52Z</time>
      </trkpt>
      <trkpt lat="45.57825" lon="2.76003">
        <ele>1221</ele>
        <time>2021-07-23T09:33:18Z</time>
      </trkpt>
      <trkpt lat="45.57828" lon="2.76005">
        <ele>1221</ele>
        <time>2021-07-23T09:33:31Z</time>
      </trkpt>
      <trkpt lat="45.57833" lon="2.76006">
        <ele>1221.4</ele>
        <time>2021-07-23T09:33:47Z</time>
      </trkpt>
      <trkpt lat="45.57834" lon="2.76006">
        <ele>1221.4</ele>
        <time>2021-07-23T09:33:49Z</time>
      </trkpt>
      <trkpt lat="45.57842" lon="2.76011">
        <ele>1219.8</ele>
        <time>2021-07-23T09:34:03Z</time>
      </trkpt>
      <trkpt lat="45.57851" lon="2.76017">
        <ele>1218.2</ele>
        <time>2021-07-23T09:34:19Z</time>
      </trkpt>
      <trkpt lat="45.57859" lon="2.76024">
        <ele>1216.7</ele>
        <time>2021-07-23T09:34:32Z</time>
      </trkpt>
      <trkpt lat="45.5787" lon="2.76033">
        <ele>1214.9</ele>
        <time>2021-07-23T09:34:44Z</time>
      </trkpt>
      <trkpt lat="45.57885" lon="2.76039">
        <ele>1213.1</ele>
        <time>2021-07-23T09:35:00Z</time>
      </trkpt>
      <trkpt lat="45.57895" lon="2.76044">
        <ele>1212</ele>
        <time>2021-07-23T09:35:13Z</time>
      </trkpt>
      <trkpt lat="45.5791" lon="2.76052">
        <ele>1210.6</ele>
        <time>2021-07-23T09:35:29Z</time>
      </trkpt>
      <trkpt lat="45.57924" lon="2.76054">
        <ele>1208.1</ele>
        <time>2021-07-23T09:35:43Z</time>
      </trkpt>
      <trkpt lat="45.57932" lon="2.7605">
        <ele>1205.8</ele>
        <time>2021-07-23T09:35:55Z</time>
      </trkpt>
      <trkpt lat="45.57941" lon="2.76044">
        <ele>1203.5</ele>
        <time>2021-07-23T09:36:09Z</time>
      </trkpt>
      <trkpt lat="45.57947" lon="2.76034">
        <ele>1202.6</ele>
        <time>2021-07-23T09:36:26Z</time>
      </trkpt>
      <trkpt lat="45.57957" lon="2.76031">
        <ele>1200.1</ele>
        <time>2021-07-23T09:36:41Z</time>
      </trkpt>
      <trkpt lat="45.57973" lon="2.76032">
        <ele>1196.3</ele>
        <time>2021-07-23T09:36:58Z</time>
      </trkpt>
      <trkpt lat="45.57988" lon="2.76021">
        <ele>1193.5</ele>
        <time>2021-07-23T09:37:11Z</time>
      </trkpt>
      <trkpt lat="45.57999" lon="2.76015">
        <ele>1191.6</ele>
        <time>2021-07-23T09:37:24Z</time>
      </trkpt>
      <trkpt lat="45.58009" lon="2.76018">
        <ele>1189.4</ele>
        <time>2021-07-23T09:37:38Z</time>
      </trkpt>
      <trkpt lat="45.58021" lon="2.7602">
        <ele>1186.7</ele>
        <time>2021-07-23T09:37:52Z</time>
      </trkpt>
      <trkpt lat="45.58031" lon="2.76017">
        <ele>1185.3</ele>
        <time>2021-07-23T09:38:07Z</time>
      </trkpt>
      <trkpt lat="45.58043" lon="2.76014">
        <ele>1183.5</ele>
        <time>2021-07-23T09:38:21Z</time>
      </trkpt>
      <trkpt lat="45.58059" lon="2.76009">
        <ele>1181.5</ele>
        <time>2021-07-23T09:38:38Z</time>
      </trkpt>
      <trkpt lat="45.58072" lon="2.76003">
        <ele>1180.4</ele>
        <time>2021-07-23T09:38:51Z</time>
      </trkpt>
      <trkpt lat="45.58086" lon="2.75995">
        <ele>1178.3</ele>
        <time>2021-07-23T09:39:05Z</time>
      </trkpt>
      <trkpt lat="45.58097" lon="2.75987">
        <ele>1175.7</ele>
        <time>2021-07-23T09:39:20Z</time>
      </trkpt>
      <trkpt lat="45.5811" lon="2.75983">
        <ele>1173</ele>
        <time>2021-07-23T09:39:33Z</time>
      </trkpt>
      <trkpt lat="45.58123" lon="2.75973">
        <ele>1171.2</ele>
        <time>2021-07-23T09:39:46Z</time>
      </trkpt>
      <trkpt lat="45.58141" lon="2.75963">
        <ele>1169</ele>
        <time>2021-07-23T09:40:02Z</time>
      </trkpt>
      <trkpt lat="45.58155" lon="2.75952">
        <ele>1168.6</ele>
        <time>2021-07-23T09:40:16Z</time>
      </trkpt>
      <trkpt lat="45.58169" lon="2.75944">
        <ele>1167.7</ele>
        <time>2021-07-23T09:40:31Z</time>
      </trkpt>
      <trkpt lat="45.58185" lon="2.75926">
        <ele>1165.8</ele>
        <time>2021-07-23T09:40:46Z</time>
      </trkpt>
      <trkpt lat="45.58194" lon="2.75912">
        <ele>1164.9</ele>
        <time>2021-07-23T09:41:01Z</time>
      </trkpt>
      <trkpt lat="45.58209" lon="2.75895">
        <ele>1161.2</ele>
        <time>2021-07-23T09:41:19Z</time>
      </trkpt>
      <trkpt lat="45.5822" lon="2.75884">
        <ele>1158.4</ele>
        <time>2021-07-23T09:41:26Z</time>
      </trkpt>
      <trkpt lat="45.58222" lon="2.75881">
        <ele>1158.1</ele>
        <time>2021-07-23T09:41:29Z</time>
      </trkpt>
      <trkpt lat="45.58227" lon="2.75884">
        <ele>1156.4</ele>
        <time>2021-07-23T09:41:45Z</time>
      </trkpt>
      <trkpt lat="45.58231" lon="2.75895">
        <ele>1154.3</ele>
        <time>2021-07-23T09:41:58Z</time>
      </trkpt>
      <trkpt lat="45.58228" lon="2.75913">
        <ele>1153.7</ele>
        <time>2021-07-23T09:42:13Z</time>
      </trkpt>
      <trkpt lat="45.58228" lon="2.75929">
        <ele>1150.9</ele>
        <time>2021-07-23T09:42:27Z</time>
      </trkpt>
      <trkpt lat="45.58228" lon="2.7593">
        <ele>1150.6</ele>
        <time>2021-07-23T09:42:28Z</time>
      </trkpt>
      <trkpt lat="45.5823" lon="2.75948">
        <ele>1146.1</ele>
        <time>2021-07-23T09:42:40Z</time>
      </trkpt>
      <trkpt lat="45.58232" lon="2.75968">
        <ele>1141.6</ele>
        <time>2021-07-23T09:42:53Z</time>
      </trkpt>
      <trkpt lat="45.58232" lon="2.75986">
        <ele>1138.1</ele>
        <time>2021-07-23T09:43:08Z</time>
      </trkpt>
      <trkpt lat="45.58233" lon="2.76008">
        <ele>1133.6</ele>
        <time>2021-07-23T09:43:20Z</time>
      </trkpt>
      <trkpt lat="45.58235" lon="2.76032">
        <ele>1130.1</ele>
        <time>2021-07-23T09:43:35Z</time>
      </trkpt>
      <trkpt lat="45.58235" lon="2.76033">
        <ele>1129.9</ele>
        <time>2021-07-23T09:43:36Z</time>
      </trkpt>
      <trkpt lat="45.58236" lon="2.76045">
        <ele>1128.2</ele>
        <time>2021-07-23T09:43:52Z</time>
      </trkpt>
      <trkpt lat="45.5824" lon="2.76056">
        <ele>1125.6</ele>
        <time>2021-07-23T09:44:07Z</time>
      </trkpt>
      <trkpt lat="45.58247" lon="2.76065">
        <ele>1122.9</ele>
        <time>2021-07-23T09:44:22Z</time>
      </trkpt>
      <trkpt lat="45.58253" lon="2.76067">
        <ele>1120.2</ele>
        <time>2021-07-23T09:44:35Z</time>
      </trkpt>
      <trkpt lat="45.58259" lon="2.76073">
        <ele>1116.6</ele>
        <time>2021-07-23T09:44:50Z</time>
      </trkpt>
      <trkpt lat="45.58262" lon="2.76083">
        <ele>1114.1</ele>
        <time>2021-07-23T09:45:05Z</time>
      </trkpt>
      <trkpt lat="45.58263" lon="2.76089">
        <ele>1112.7</ele>
        <time>2021-07-23T09:45:13Z</time>
      </trkpt>
      <trkpt lat="45.58267" lon="2.761">
        <ele>1108.4</ele>
        <time>2021-07-23T09:45:27Z</time>
      </trkpt>
      <trkpt lat="45.58272" lon="2.7611">
        <ele>1104.5</ele>
        <time>2021-07-23T09:45:41Z</time>
      </trkpt>
      <trkpt lat="45.58273" lon="2.76117">
        <ele>1102.8</ele>
        <time>2021-07-23T09:45:55Z</time>
      </trkpt>
      <trkpt lat="45.58273" lon="2.76129">
        <ele>1100.8</ele>
        <time>2021-07-23T09:46:08Z</time>
      </trkpt>
      <trkpt lat="45.58273" lon="2.76141">
        <ele>1098.8</ele>
        <time>2021-07-23T09:46:19Z</time>
      </trkpt>
      <trkpt lat="45.58276" lon="2.76164">
        <ele>1094</ele>
        <time>2021-07-23T09:46:33Z</time>
      </trkpt>
      <trkpt lat="45.58271" lon="2.7619">
        <ele>1090.7</ele>
        <time>2021-07-23T09:46:51Z</time>
      </trkpt>
      <trkpt lat="45.5826" lon="2.76202">
        <ele>1091.7</ele>
        <time>2021-07-23T09:47:08Z</time>
      </trkpt>
      <trkpt lat="45.58253" lon="2.76208">
        <ele>1092.2</ele>
        <time>2021-07-23T09:47:21Z</time>
      </trkpt>
      <trkpt lat="45.58247" lon="2.76218">
        <ele>1091.1</ele>
        <time>2021-07-23T09:47:36Z</time>
      </trkpt>
      <trkpt lat="45.58247" lon="2.76218">
        <ele>1091</ele>
        <time>2021-07-23T09:47:39Z</time>
      </trkpt>
      <trkpt lat="45.58249" lon="2.76219">
        <ele>1090.5</ele>
        <time>2021-07-23T09:47:44Z</time>
      </trkpt>
      <trkpt lat="45.58264" lon="2.76218">
        <ele>1086.6</ele>
        <time>2021-07-23T09:48:01Z</time>
      </trkpt>
      <trkpt lat="45.58275" lon="2.76226">
        <ele>1081.8</ele>
        <time>2021-07-23T09:48:17Z</time>
      </trkpt>
      <trkpt lat="45.58289" lon="2.76238">
        <ele>1076</ele>
        <time>2021-07-23T09:48:31Z</time>
      </trkpt>
      <trkpt lat="45.58302" lon="2.76236">
        <ele>1073.5</ele>
        <time>2021-07-23T09:48:45Z</time>
      </trkpt>
      <trkpt lat="45.58308" lon="2.76228">
        <ele>1073</ele>
        <time>2021-07-23T09:48:54Z</time>
      </trkpt>
      <trkpt lat="45.58316" lon="2.76216">
        <ele>1072.3</ele>
        <time>2021-07-23T09:49:05Z</time>
      </trkpt>
      <trkpt lat="45.58321" lon="2.76199">
        <ele>1072.5</ele>
        <time>2021-07-23T09:49:16Z</time>
      </trkpt>
      <trkpt lat="45.58325" lon="2.76182">
        <ele>1072.9</ele>
        <time>2021-07-23T09:49:29Z</time>
      </trkpt>
      <trkpt lat="45.58325" lon="2.76161">
        <ele>1074.7</ele>
        <time>2021-07-23T09:49:44Z</time>
      </trkpt>
      <trkpt lat="45.58331" lon="2.76147">
        <ele>1073.6</ele>
        <time>2021-07-23T09:50:00Z</time>
      </trkpt>
      <trkpt lat="45.5834" lon="2.76132">
        <ele>1071.6</ele>
        <time>2021-07-23T09:50:15Z</time>
      </trkpt>
      <trkpt lat="45.5835" lon="2.7612">
        <ele>1068.9</ele>
        <time>2021-07-23T09:50:27Z</time>
      </trkpt>
      <trkpt lat="45.58362" lon="2.76105">
        <ele>1065.7</ele>
        <time>2021-07-23T09:50:40Z</time>
      </trkpt>
      <trkpt lat="45.5837" lon="2.76097">
        <ele>1063.3</ele>
        <time>2021-07-23T09:50:48Z</time>
      </trkpt>
      <trkpt lat="45.58378" lon="2.76084">
        <ele>1061.2</ele>
        <time>2021-07-23T09:51:00Z</time>
      </trkpt>
      <trkpt lat="45.58391" lon="2.7607">
        <ele>1058.2</ele>
        <time>2021-07-23T09:51:15Z</time>
      </trkpt>
      <trkpt lat="45.58401" lon="2.76058">
        <ele>1055.3</ele>
        <time>2021-07-23T09:51:27Z</time>
      </trkpt>
      <trkpt lat="45.58412" lon="2.7604">
        <ele>1052.6</ele>
        <time>2021-07-23T09:51:38Z</time>
      </trkpt>
      <trkpt lat="45.58424" lon="2.76021">
        <ele>1049.5</ele>
        <time>2021-07-23T09:51:51Z</time>
      </trkpt>
      <trkpt lat="45.58428" lon="2.76008">
        <ele>1049</ele>
        <time>2021-07-23T09:52:00Z</time>
      </trkpt>
      <trkpt lat="45.58433" lon="2.75992">
        <ele>1048.7</ele>
        <time>2021-07-23T09:52:11Z</time>
      </trkpt>
      <trkpt lat="45.58434" lon="2.75989">
        <ele>1048.6</ele>
        <time>2021-07-23T09:52:13Z</time>
      </trkpt>
      <trkpt lat="45.58436" lon="2.75976">
        <ele>1048.7</ele>
        <time>2021-07-23T09:52:21Z</time>
      </trkpt>
      <trkpt lat="45.58438" lon="2.75971">
        <ele>1048.3</ele>
        <time>2021-07-23T09:52:24Z</time>
      </trkpt>
      <trkpt lat="45.58439" lon="2.75966">
        <ele>1048.1</ele>
        <time>2021-07-23T09:52:28Z</time>
      </trkpt>
      <trkpt lat="45.58443" lon="2.75953">
        <ele>1047.5</ele>
        <time>2021-07-23T09:52:38Z</time>
      </trkpt>
      <trkpt lat="45.58446" lon="2.75938">
        <ele>1046.8</ele>
        <time>2021-07-23T09:52:49Z</time>
      </trkpt>
      <trkpt lat="45.5845" lon="2.75927">
        <ele>1045.8</ele>
        <time>2021-07-23T09:52:58Z</time>
      </trkpt>
      <trkpt lat="45.58455" lon="2.75914">
        <ele>1044.4</ele>
        <time>2021-07-23T09:53:08Z</time>
      </trkpt>
      <trkpt lat="45.58462" lon="2.75897">
        <ele>1041.5</ele>
        <time>2021-07-23T09:53:22Z</time>
      </trkpt>
      <trkpt lat="45.58469" lon="2.75884">
        <ele>1038.4</ele>
        <time>2021-07-23T09:53:35Z</time>
      </trkpt>
      <trkpt lat="45.58475" lon="2.7587">
        <ele>1035.6</ele>
        <time>2021-07-23T09:53:45Z</time>
      </trkpt>
      <trkpt lat="45.58479" lon="2.75865">
        <ele>1033.9</ele>
        <time>2021-07-23T09:53:50Z</time>
      </trkpt>
      <trkpt lat="45.58484" lon="2.7585">
        <ele>1031.6</ele>
        <time>2021-07-23T09:54:03Z</time>
      </trkpt>
      <trkpt lat="45.58488" lon="2.7584">
        <ele>1029.8</ele>
        <time>2021-07-23T09:54:10Z</time>
      </trkpt>
      <trkpt lat="45.5849" lon="2.75834">
        <ele>1028.7</ele>
        <time>2021-07-23T09:54:15Z</time>
      </trkpt>
      <trkpt lat="45.58496" lon="2.75821">
        <ele>1025.7</ele>
        <time>2021-07-23T09:54:26Z</time>
      </trkpt>
      <trkpt lat="45.58505" lon="2.75807">
        <ele>1022.9</ele>
        <time>2021-07-23T09:54:42Z</time>
      </trkpt>
      <trkpt lat="45.58514" lon="2.75789">
        <ele>1020.7</ele>
        <time>2021-07-23T09:54:55Z</time>
      </trkpt>
      <trkpt lat="45.58522" lon="2.75776">
        <ele>1019</ele>
        <time>2021-07-23T09:55:02Z</time>
      </trkpt>
      <trkpt lat="45.58539" lon="2.75749">
        <ele>1014.7</ele>
        <time>2021-07-23T09:55:21Z</time>
      </trkpt>
      <trkpt lat="45.58551" lon="2.75743">
        <ele>1010.8</ele>
        <time>2021-07-23T09:55:35Z</time>
      </trkpt>
      <trkpt lat="45.58561" lon="2.7573">
        <ele>1006.9</ele>
        <time>2021-07-23T09:55:48Z</time>
      </trkpt>
      <trkpt lat="45.58566" lon="2.75716">
        <ele>1004.9</ele>
        <time>2021-07-23T09:55:57Z</time>
      </trkpt>
      <trkpt lat="45.58568" lon="2.75703">
        <ele>1003.8</ele>
        <time>2021-07-23T09:56:09Z</time>
      </trkpt>
      <trkpt lat="45.58568" lon="2.75702">
        <ele>1003.8</ele>
        <time>2021-07-23T09:56:28Z</time>
      </trkpt>
      <trkpt lat="45.58569" lon="2.75695">
        <ele>1003.2</ele>
        <time>2021-07-23T09:56:35Z</time>
      </trkpt>
      <trkpt lat="45.5857" lon="2.75679">
        <ele>1002.4</ele>
        <time>2021-07-23T09:56:49Z</time>
      </trkpt>
      <trkpt lat="45.58577" lon="2.75666">
        <ele>1000.4</ele>
        <time>2021-07-23T09:57:04Z</time>
      </trkpt>
      <trkpt lat="45.58575" lon="2.75654">
        <ele>999.9</ele>
        <time>2021-07-23T09:57:20Z</time>
      </trkpt>
      <trkpt lat="45.58562" lon="2.75643">
        <ele>1001.8</ele>
        <time>2021-07-23T09:57:38Z</time>
      </trkpt>
      <trkpt lat="45.58553" lon="2.75635">
        <ele>1003</ele>
        <time>2021-07-23T09:57:54Z</time>
      </trkpt>
      <trkpt lat="45.58551" lon="2.75634">
        <ele>1003.4</ele>
        <time>2021-07-23T09:57:57Z</time>
      </trkpt>
      <trkpt lat="45.58533" lon="2.75619">
        <ele>1005.8</ele>
        <time>2021-07-23T09:58:15Z</time>
      </trkpt>
      <trkpt lat="45.58528" lon="2.75616">
        <ele>1006.6</ele>
        <time>2021-07-23T09:58:27Z</time>
      </trkpt>
      <trkpt lat="45.58527" lon="2.75612">
        <ele>1006.4</ele>
        <time>2021-07-23T09:58:40Z</time>
      </trkpt>
      <trkpt lat="45.58524" lon="2.75608">
        <ele>1006.5</ele>
        <time>2021-07-23T09:59:01Z</time>
      </trkpt>
      <trkpt lat="45.58525" lon="2.75609">
        <ele>1006.4</ele>
        <time>2021-07-23T09:59:14Z</time>
      </trkpt>
      <trkpt lat="45.58525" lon="2.75609">
        <ele>1006.5</ele>
        <time>2021-07-23T09:59:38Z</time>
      </trkpt>
      <trkpt lat="45.58524" lon="2.75604">
        <ele>1006.3</ele>
        <time>2021-07-23T10:00:01Z</time>
      </trkpt>
      <trkpt lat="45.58523" lon="2.75601">
        <ele>1006.2</ele>
        <time>2021-07-23T10:00:04Z</time>
      </trkpt>
      <trkpt lat="45.58517" lon="2.75586">
        <ele>1006</ele>
        <time>2021-07-23T10:00:17Z</time>
      </trkpt>
      <trkpt lat="45.58513" lon="2.7558">
        <ele>1006.3</ele>
        <time>2021-07-23T10:00:27Z</time>
      </trkpt>
      <trkpt lat="45.5851" lon="2.75575">
        <ele>1006.8</ele>
        <time>2021-07-23T10:00:37Z</time>
      </trkpt>
      <trkpt lat="45.58505" lon="2.75562">
        <ele>1007.1</ele>
        <time>2021-07-23T10:00:51Z</time>
      </trkpt>
      <trkpt lat="45.58502" lon="2.75549">
        <ele>1007.4</ele>
        <time>2021-07-23T10:01:02Z</time>
      </trkpt>
      <trkpt lat="45.58497" lon="2.75533">
        <ele>1008.2</ele>
        <time>2021-07-23T10:01:15Z</time>
      </trkpt>
      <trkpt lat="45.58491" lon="2.75521">
        <ele>1009.5</ele>
        <time>2021-07-23T10:01:27Z</time>
      </trkpt>
      <trkpt lat="45.58482" lon="2.7551">
        <ele>1011.8</ele>
        <time>2021-07-23T10:01:43Z</time>
      </trkpt>
      <trkpt lat="45.58473" lon="2.75499">
        <ele>1014</ele>
        <time>2021-07-23T10:01:59Z</time>
      </trkpt>
      <trkpt lat="45.58467" lon="2.75488">
        <ele>1015.1</ele>
        <time>2021-07-23T10:02:12Z</time>
      </trkpt>
      <trkpt lat="45.58456" lon="2.7548">
        <ele>1017.7</ele>
        <time>2021-07-23T10:02:27Z</time>
      </trkpt>
      <trkpt lat="45.58446" lon="2.7547">
        <ele>1020</ele>
        <time>2021-07-23T10:02:41Z</time>
      </trkpt>
      <trkpt lat="45.58435" lon="2.75461">
        <ele>1022.7</ele>
        <time>2021-07-23T10:02:53Z</time>
      </trkpt>
      <trkpt lat="45.58425" lon="2.75455">
        <ele>1025.3</ele>
        <time>2021-07-23T10:03:04Z</time>
      </trkpt>
      <trkpt lat="45.58414" lon="2.75444">
        <ele>1027.6</ele>
        <time>2021-07-23T10:03:18Z</time>
      </trkpt>
      <trkpt lat="45.58406" lon="2.75435">
        <ele>1029</ele>
        <time>2021-07-23T10:03:33Z</time>
      </trkpt>
      <trkpt lat="45.584" lon="2.75424">
        <ele>1029.7</ele>
        <time>2021-07-23T10:03:44Z</time>
      </trkpt>
      <trkpt lat="45.58392" lon="2.75412">
        <ele>1030.6</ele>
        <time>2021-07-23T10:03:56Z</time>
      </trkpt>
      <trkpt lat="45.58391" lon="2.75409">
        <ele>1030.7</ele>
        <time>2021-07-23T10:03:59Z</time>
      </trkpt>
      <trkpt lat="45.58378" lon="2.75389">
        <ele>1032.4</ele>
        <time>2021-07-23T10:04:12Z</time>
      </trkpt>
      <trkpt lat="45.58381" lon="2.75364">
        <ele>1030.1</ele>
        <time>2021-07-23T10:04:25Z</time>
      </trkpt>
      <trkpt lat="45.58387" lon="2.75356">
        <ele>1027.8</ele>
        <time>2021-07-23T10:04:37Z</time>
      </trkpt>
      <trkpt lat="45.58391" lon="2.75355">
        <ele>1026.7</ele>
        <time>2021-07-23T10:04:48Z</time>
      </trkpt>
      <trkpt lat="45.58401" lon="2.75342">
        <ele>1022.5</ele>
        <time>2021-07-23T10:05:04Z</time>
      </trkpt>
      <trkpt lat="45.58407" lon="2.7533">
        <ele>1020</ele>
        <time>2021-07-23T10:05:16Z</time>
      </trkpt>
      <trkpt lat="45.5841" lon="2.75316">
        <ele>1018.7</ele>
        <time>2021-07-23T10:05:35Z</time>
      </trkpt>
      <trkpt lat="45.58412" lon="2.75301">
        <ele>1017.6</ele>
        <time>2021-07-23T10:05:49Z</time>
      </trkpt>
      <trkpt lat="45.58412" lon="2.75298">
        <ele>1017.7</ele>
        <time>2021-07-23T10:05:51Z</time>
      </trkpt>
      <trkpt lat="45.58408" lon="2.75271">
        <ele>1018.1</ele>
        <time>2021-07-23T10:06:08Z</time>
      </trkpt>
      <trkpt lat="45.584" lon="2.75261">
        <ele>1019.9</ele>
        <time>2021-07-23T10:06:23Z</time>
      </trkpt>
      <trkpt lat="45.58397" lon="2.75253">
        <ele>1020.4</ele>
        <time>2021-07-23T10:06:35Z</time>
      </trkpt>
      <trkpt lat="45.58397" lon="2.75251">
        <ele>1020.4</ele>
        <time>2021-07-23T10:06:52Z</time>
      </trkpt>
      <trkpt lat="45.58394" lon="2.75248">
        <ele>1021.1</ele>
        <time>2021-07-23T10:07:05Z</time>
      </trkpt>
      <trkpt lat="45.58393" lon="2.75243">
        <ele>1021.3</ele>
        <time>2021-07-23T10:07:32Z</time>
      </trkpt>
      <trkpt lat="45.58385" lon="2.75227">
        <ele>1022.7</ele>
        <time>2021-07-23T10:07:48Z</time>
      </trkpt>
      <trkpt lat="45.58384" lon="2.75224">
        <ele>1022.7</ele>
        <time>2021-07-23T10:07:50Z</time>
      </trkpt>
      <trkpt lat="45.58384" lon="2.75203">
        <ele>1021.9</ele>
        <time>2021-07-23T10:08:06Z</time>
      </trkpt>
      <trkpt lat="45.58384" lon="2.75185">
        <ele>1021</ele>
        <time>2021-07-23T10:08:19Z</time>
      </trkpt>
      <trkpt lat="45.58384" lon="2.75161">
        <ele>1019.9</ele>
        <time>2021-07-23T10:08:34Z</time>
      </trkpt>
      <trkpt lat="45.58384" lon="2.75137">
        <ele>1018.9</ele>
        <time>2021-07-23T10:08:51Z</time>
      </trkpt>
      <trkpt lat="45.58382" lon="2.75118">
        <ele>1018.5</ele>
        <time>2021-07-23T10:09:04Z</time>
      </trkpt>
      <trkpt lat="45.5838" lon="2.75114">
        <ele>1018.6</ele>
        <time>2021-07-23T10:09:14Z</time>
      </trkpt>
      <trkpt lat="45.58381" lon="2.75113">
        <ele>1018.5</ele>
        <time>2021-07-23T10:09:34Z</time>
      </trkpt>
      <trkpt lat="45.58379" lon="2.75098">
        <ele>1018.3</ele>
        <time>2021-07-23T10:09:45Z</time>
      </trkpt>
      <trkpt lat="45.58375" lon="2.75074">
        <ele>1018.3</ele>
        <time>2021-07-23T10:10:02Z</time>
      </trkpt>
      <trkpt lat="45.5837" lon="2.7505">
        <ele>1018.6</ele>
        <time>2021-07-23T10:10:19Z</time>
      </trkpt>
      <trkpt lat="45.58369" lon="2.75026">
        <ele>1018.2</ele>
        <time>2021-07-23T10:10:34Z</time>
      </trkpt>
      <trkpt lat="45.58372" lon="2.75008">
        <ele>1017.2</ele>
        <time>2021-07-23T10:10:46Z</time>
      </trkpt>
      <trkpt lat="45.58372" lon="2.75006">
        <ele>1017.1</ele>
        <time>2021-07-23T10:10:48Z</time>
      </trkpt>
      <trkpt lat="45.58373" lon="2.74997">
        <ele>1016.5</ele>
        <time>2021-07-23T10:11:00Z</time>
      </trkpt>
      <trkpt lat="45.58372" lon="2.74991">
        <ele>1016</ele>
        <time>2021-07-23T10:11:17Z</time>
      </trkpt>
      <trkpt lat="45.58366" lon="2.74975">
        <ele>1015.4</ele>
        <time>2021-07-23T10:11:32Z</time>
      </trkpt>
      <trkpt lat="45.58362" lon="2.74969">
        <ele>1015.2</ele>
        <time>2021-07-23T10:11:44Z</time>
      </trkpt>
      <trkpt lat="45.58364" lon="2.74968">
        <ele>1014.9</ele>
        <time>2021-07-23T10:12:03Z</time>
      </trkpt>
      <trkpt lat="45.58372" lon="2.74963">
        <ele>1013.5</ele>
        <time>2021-07-23T10:12:16Z</time>
      </trkpt>
      <trkpt lat="45.58385" lon="2.74955">
        <ele>1011.4</ele>
        <time>2021-07-23T10:12:31Z</time>
      </trkpt>
      <trkpt lat="45.58395" lon="2.74947">
        <ele>1009.9</ele>
        <time>2021-07-23T10:12:43Z</time>
      </trkpt>
      <trkpt lat="45.58409" lon="2.74937">
        <ele>1008.3</ele>
        <time>2021-07-23T10:13:00Z</time>
      </trkpt>
      <trkpt lat="45.58416" lon="2.74932">
        <ele>1007.6</ele>
        <time>2021-07-23T10:13:11Z</time>
      </trkpt>
      <trkpt lat="45.58417" lon="2.74931">
        <ele>1007.4</ele>
        <time>2021-07-23T10:13:12Z</time>
      </trkpt>
      <trkpt lat="45.58419" lon="2.7493">
        <ele>1006.7</ele>
        <time>2021-07-23T10:13:16Z</time>
      </trkpt>
      <trkpt lat="45.58433" lon="2.74919">
        <ele>1002.6</ele>
        <time>2021-07-23T10:13:32Z</time>
      </trkpt>
      <trkpt lat="45.58442" lon="2.74911">
        <ele>999.5</ele>
        <time>2021-07-23T10:13:44Z</time>
      </trkpt>
      <trkpt lat="45.58456" lon="2.74898">
        <ele>995</ele>
        <time>2021-07-23T10:14:01Z</time>
      </trkpt>
      <trkpt lat="45.58466" lon="2.74889">
        <ele>991.9</ele>
        <time>2021-07-23T10:14:13Z</time>
      </trkpt>
      <trkpt lat="45.58465" lon="2.74867">
        <ele>990.8</ele>
        <time>2021-07-23T10:14:28Z</time>
      </trkpt>
      <trkpt lat="45.58462" lon="2.7485">
        <ele>990.7</ele>
        <time>2021-07-23T10:14:40Z</time>
      </trkpt>
      <trkpt lat="45.58457" lon="2.74824">
        <ele>989.2</ele>
        <time>2021-07-23T10:14:59Z</time>
      </trkpt>
      <trkpt lat="45.58462" lon="2.74811">
        <ele>986</ele>
        <time>2021-07-23T10:15:12Z</time>
      </trkpt>
      <trkpt lat="45.58468" lon="2.74797">
        <ele>983</ele>
        <time>2021-07-23T10:15:25Z</time>
      </trkpt>
      <trkpt lat="45.58474" lon="2.74785">
        <ele>980.4</ele>
        <time>2021-07-23T10:15:36Z</time>
      </trkpt>
      <trkpt lat="45.58474" lon="2.74784">
        <ele>980.2</ele>
        <time>2021-07-23T10:15:37Z</time>
      </trkpt>
      <trkpt lat="45.5848" lon="2.74771">
        <ele>977.8</ele>
        <time>2021-07-23T10:15:51Z</time>
      </trkpt>
      <trkpt lat="45.58486" lon="2.74758">
        <ele>975.7</ele>
        <time>2021-07-23T10:16:02Z</time>
      </trkpt>
      <trkpt lat="45.5849" lon="2.74739">
        <ele>973.3</ele>
        <time>2021-07-23T10:16:15Z</time>
      </trkpt>
      <trkpt lat="45.58493" lon="2.74721">
        <ele>971.3</ele>
        <time>2021-07-23T10:16:27Z</time>
      </trkpt>
      <trkpt lat="45.58493" lon="2.7471">
        <ele>970</ele>
        <time>2021-07-23T10:16:39Z</time>
      </trkpt>
      <trkpt lat="45.58491" lon="2.7469">
        <ele>967.6</ele>
        <time>2021-07-23T10:16:52Z</time>
      </trkpt>
      <trkpt lat="45.5849" lon="2.74684">
        <ele>966.8</ele>
        <time>2021-07-23T10:16:56Z</time>
      </trkpt>
      <trkpt lat="45.58489" lon="2.74668">
        <ele>964.8</ele>
        <time>2021-07-23T10:17:07Z</time>
      </trkpt>
      <trkpt lat="45.58488" lon="2.74654">
        <ele>962.6</ele>
        <time>2021-07-23T10:17:18Z</time>
      </trkpt>
      <trkpt lat="45.58489" lon="2.74638">
        <ele>960.1</ele>
        <time>2021-07-23T10:17:30Z</time>
      </trkpt>
      <trkpt lat="45.5849" lon="2.74621">
        <ele>957.6</ele>
        <time>2021-07-23T10:17:43Z</time>
      </trkpt>
      <trkpt lat="45.58491" lon="2.74607">
        <ele>955.6</ele>
        <time>2021-07-23T10:17:55Z</time>
      </trkpt>
      <trkpt lat="45.58489" lon="2.74593">
        <ele>953.2</ele>
        <time>2021-07-23T10:18:08Z</time>
      </trkpt>
      <trkpt lat="45.58488" lon="2.74575">
        <ele>949.7</ele>
        <time>2021-07-23T10:18:22Z</time>
      </trkpt>
      <trkpt lat="45.58486" lon="2.74556">
        <ele>945.6</ele>
        <time>2021-07-23T10:18:35Z</time>
      </trkpt>
      <trkpt lat="45.58487" lon="2.7453">
        <ele>941</ele>
        <time>2021-07-23T10:18:48Z</time>
      </trkpt>
      <trkpt lat="45.58488" lon="2.74525">
        <ele>940.1</ele>
        <time>2021-07-23T10:18:50Z</time>
      </trkpt>
      <trkpt lat="45.58487" lon="2.74518">
        <ele>938.6</ele>
        <time>2021-07-23T10:18:53Z</time>
      </trkpt>
      <trkpt lat="45.58486" lon="2.7451">
        <ele>937</ele>
        <time>2021-07-23T10:18:57Z</time>
      </trkpt>
      <trkpt lat="45.58486" lon="2.74491">
        <ele>933.5</ele>
        <time>2021-07-23T10:19:08Z</time>
      </trkpt>
      <trkpt lat="45.58488" lon="2.74479">
        <ele>932</ele>
        <time>2021-07-23T10:19:17Z</time>
      </trkpt>
      <trkpt lat="45.5849" lon="2.74472">
        <ele>931.2</ele>
        <time>2021-07-23T10:19:22Z</time>
      </trkpt>
      <trkpt lat="45.58498" lon="2.74454">
        <ele>930.4</ele>
        <time>2021-07-23T10:19:36Z</time>
      </trkpt>
      <trkpt lat="45.5851" lon="2.74448">
        <ele>928.8</ele>
        <time>2021-07-23T10:19:52Z</time>
      </trkpt>
      <trkpt lat="45.58516" lon="2.74447">
        <ele>928.2</ele>
        <time>2021-07-23T10:20:04Z</time>
      </trkpt>
      <trkpt lat="45.58522" lon="2.74447">
        <ele>927.7</ele>
        <time>2021-07-23T10:20:19Z</time>
      </trkpt>
      <trkpt lat="45.58529" lon="2.74447">
        <ele>927.2</ele>
        <time>2021-07-23T10:20:34Z</time>
      </trkpt>
      <trkpt lat="45.58533" lon="2.74446">
        <ele>926.8</ele>
        <time>2021-07-23T10:20:50Z</time>
      </trkpt>
      <trkpt lat="45.58529" lon="2.74444">
        <ele>926.9</ele>
        <time>2021-07-23T10:21:07Z</time>
      </trkpt>
      <trkpt lat="45.58525" lon="2.74446">
        <ele>927.4</ele>
        <time>2021-07-23T10:21:19Z</time>
      </trkpt>
      <trkpt lat="45.58523" lon="2.74447">
        <ele>927.8</ele>
        <time>2021-07-23T10:21:31Z</time>
      </trkpt>
      <trkpt lat="45.58518" lon="2.74445">
        <ele>927.7</ele>
        <time>2021-07-23T10:21:42Z</time>
      </trkpt>
      <trkpt lat="45.5852" lon="2.74447">
        <ele>928</ele>
        <time>2021-07-23T10:21:59Z</time>
      </trkpt>
      <trkpt lat="45.58525" lon="2.74448">
        <ele>927.8</ele>
        <time>2021-07-23T10:22:20Z</time>
      </trkpt>
      <trkpt lat="45.58532" lon="2.74447">
        <ele>927</ele>
        <time>2021-07-23T10:22:34Z</time>
      </trkpt>
      <trkpt lat="45.58532" lon="2.74446">
        <ele>927</ele>
        <time>2021-07-23T10:22:49Z</time>
      </trkpt>
      <trkpt lat="45.58532" lon="2.74446">
        <ele>926.9</ele>
        <time>2021-07-23T10:23:09Z</time>
      </trkpt>
      <trkpt lat="45.58534" lon="2.74446">
        <ele>926.8</ele>
        <time>2021-07-23T10:23:30Z</time>
      </trkpt>
      <trkpt lat="45.58546" lon="2.74447">
        <ele>925.9</ele>
        <time>2021-07-23T10:23:46Z</time>
      </trkpt>
      <trkpt lat="45.58559" lon="2.7445">
        <ele>925.4</ele>
        <time>2021-07-23T10:24:02Z</time>
      </trkpt>
      <trkpt lat="45.58568" lon="2.74455">
        <ele>925.1</ele>
        <time>2021-07-23T10:24:17Z</time>
      </trkpt>
      <trkpt lat="45.58573" lon="2.74437">
        <ele>923.1</ele>
        <time>2021-07-23T10:24:31Z</time>
      </trkpt>
      <trkpt lat="45.58571" lon="2.74428">
        <ele>922.5</ele>
        <time>2021-07-23T10:24:36Z</time>
      </trkpt>
      <trkpt lat="45.58562" lon="2.74419">
        <ele>922</ele>
        <time>2021-07-23T10:24:49Z</time>
      </trkpt>
      <trkpt lat="45.58557" lon="2.74408">
        <ele>920.5</ele>
        <time>2021-07-23T10:24:59Z</time>
      </trkpt>
      <trkpt lat="45.58549" lon="2.74396">
        <ele>918.9</ele>
        <time>2021-07-23T10:25:11Z</time>
      </trkpt>
      <trkpt lat="45.58544" lon="2.74388">
        <ele>917.7</ele>
        <time>2021-07-23T10:25:19Z</time>
      </trkpt>
      <trkpt lat="45.5854" lon="2.74374">
        <ele>915.3</ele>
        <time>2021-07-23T10:25:32Z</time>
      </trkpt>
      <trkpt lat="45.58539" lon="2.74369">
        <ele>914.5</ele>
        <time>2021-07-23T10:25:40Z</time>
      </trkpt>
      <trkpt lat="45.58527" lon="2.74357">
        <ele>912.5</ele>
        <time>2021-07-23T10:25:54Z</time>
      </trkpt>
      <trkpt lat="45.58519" lon="2.7435">
        <ele>911.2</ele>
        <time>2021-07-23T10:26:07Z</time>
      </trkpt>
      <trkpt lat="45.58521" lon="2.74347">
        <ele>910.7</ele>
        <time>2021-07-23T10:26:11Z</time>
      </trkpt>
      <trkpt lat="45.58524" lon="2.74346">
        <ele>910.5</ele>
        <time>2021-07-23T10:26:25Z</time>
      </trkpt>
      <trkpt lat="45.58531" lon="2.74345">
        <ele>910.4</ele>
        <time>2021-07-23T10:26:38Z</time>
      </trkpt>
      <trkpt lat="45.58536" lon="2.74336">
        <ele>908.9</ele>
        <time>2021-07-23T10:26:48Z</time>
      </trkpt>
      <trkpt lat="45.58542" lon="2.74323">
        <ele>907.1</ele>
        <time>2021-07-23T10:27:00Z</time>
      </trkpt>
      <trkpt lat="45.58546" lon="2.74296">
        <ele>903.8</ele>
        <time>2021-07-23T10:27:17Z</time>
      </trkpt>
      <trkpt lat="45.58545" lon="2.74275">
        <ele>901</ele>
        <time>2021-07-23T10:27:32Z</time>
      </trkpt>
      <trkpt lat="45.58547" lon="2.74258">
        <ele>899.2</ele>
        <time>2021-07-23T10:27:40Z</time>
      </trkpt>
      <trkpt lat="45.58547" lon="2.74256">
        <ele>899</ele>
        <time>2021-07-23T10:27:41Z</time>
      </trkpt>
      <trkpt lat="45.58552" lon="2.74227">
        <ele>895.4</ele>
        <time>2021-07-23T10:27:56Z</time>
      </trkpt>
      <trkpt lat="45.58554" lon="2.74212">
        <ele>893.3</ele>
        <time>2021-07-23T10:28:06Z</time>
      </trkpt>
      <trkpt lat="45.58554" lon="2.74206">
        <ele>892.4</ele>
        <time>2021-07-23T10:28:10Z</time>
      </trkpt>
      <trkpt lat="45.58556" lon="2.74186">
        <ele>889.4</ele>
        <time>2021-07-23T10:28:22Z</time>
      </trkpt>
      <trkpt lat="45.58565" lon="2.74175">
        <ele>888.3</ele>
        <time>2021-07-23T10:28:35Z</time>
      </trkpt>
      <trkpt lat="45.58573" lon="2.74178">
        <ele>889.2</ele>
        <time>2021-07-23T10:28:43Z</time>
      </trkpt>
      <trkpt lat="45.58578" lon="2.74182">
        <ele>890.4</ele>
        <time>2021-07-23T10:28:49Z</time>
      </trkpt>
      <trkpt lat="45.58587" lon="2.7419">
        <ele>891.4</ele>
        <time>2021-07-23T10:29:01Z</time>
      </trkpt>
      <trkpt lat="45.58595" lon="2.74196">
        <ele>890.8</ele>
        <time>2021-07-23T10:29:13Z</time>
      </trkpt>
      <trkpt lat="45.58609" lon="2.74209">
        <ele>889.7</ele>
        <time>2021-07-23T10:29:26Z</time>
      </trkpt>
      <trkpt lat="45.58621" lon="2.74213">
        <ele>887.4</ele>
        <time>2021-07-23T10:29:38Z</time>
      </trkpt>
      <trkpt lat="45.58622" lon="2.74214">
        <ele>887.1</ele>
        <time>2021-07-23T10:29:43Z</time>
      </trkpt>
      <trkpt lat="45.58635" lon="2.742">
        <ele>882.5</ele>
        <time>2021-07-23T10:29:57Z</time>
      </trkpt>
      <trkpt lat="45.58639" lon="2.74188">
        <ele>880.6</ele>
        <time>2021-07-23T10:30:06Z</time>
      </trkpt>
      <trkpt lat="45.58639" lon="2.74185">
        <ele>880.3</ele>
        <time>2021-07-23T10:30:08Z</time>
      </trkpt>
      <trkpt lat="45.58642" lon="2.7417">
        <ele>878.5</ele>
        <time>2021-07-23T10:30:19Z</time>
      </trkpt>
      <trkpt lat="45.58641" lon="2.74154">
        <ele>877.5</ele>
        <time>2021-07-23T10:30:31Z</time>
      </trkpt>
      <trkpt lat="45.58638" lon="2.74139">
        <ele>877</ele>
        <time>2021-07-23T10:30:45Z</time>
      </trkpt>
      <trkpt lat="45.5863" lon="2.74123">
        <ele>876.7</ele>
        <time>2021-07-23T10:31:00Z</time>
      </trkpt>
      <trkpt lat="45.58627" lon="2.74106">
        <ele>875.6</ele>
        <time>2021-07-23T10:31:10Z</time>
      </trkpt>
      <trkpt lat="45.58622" lon="2.74085">
        <ele>874.3</ele>
        <time>2021-07-23T10:31:23Z</time>
      </trkpt>
      <trkpt lat="45.58618" lon="2.74067">
        <ele>873.1</ele>
        <time>2021-07-23T10:31:36Z</time>
      </trkpt>
      <trkpt lat="45.58611" lon="2.74051">
        <ele>872</ele>
        <time>2021-07-23T10:31:51Z</time>
      </trkpt>
      <trkpt lat="45.58602" lon="2.74038">
        <ele>871.1</ele>
        <time>2021-07-23T10:32:05Z</time>
      </trkpt>
      <trkpt lat="45.58598" lon="2.74026">
        <ele>869.9</ele>
        <time>2021-07-23T10:32:12Z</time>
      </trkpt>
      <trkpt lat="45.58593" lon="2.74011">
        <ele>868.4</ele>
        <time>2021-07-23T10:32:28Z</time>
      </trkpt>
      <trkpt lat="45.58589" lon="2.74006">
        <ele>867.8</ele>
        <time>2021-07-23T10:32:35Z</time>
      </trkpt>
      <trkpt lat="45.58581" lon="2.74002">
        <ele>867.3</ele>
        <time>2021-07-23T10:32:43Z</time>
      </trkpt>
      <trkpt lat="45.58572" lon="2.74013">
        <ele>868.7</ele>
        <time>2021-07-23T10:32:59Z</time>
      </trkpt>
      <trkpt lat="45.58565" lon="2.74014">
        <ele>868.9</ele>
        <time>2021-07-23T10:33:09Z</time>
      </trkpt>
      <trkpt lat="45.58561" lon="2.74003">
        <ele>867.6</ele>
        <time>2021-07-23T10:33:19Z</time>
      </trkpt>
      <trkpt lat="45.58562" lon="2.73984">
        <ele>866.1</ele>
        <time>2021-07-23T10:33:33Z</time>
      </trkpt>
      <trkpt lat="45.58559" lon="2.73976">
        <ele>865.6</ele>
        <time>2021-07-23T10:33:52Z</time>
      </trkpt>
      <trkpt lat="45.58551" lon="2.73965">
        <ele>865.1</ele>
        <time>2021-07-23T10:34:06Z</time>
      </trkpt>
      <trkpt lat="45.58549" lon="2.73948">
        <ele>864.1</ele>
        <time>2021-07-23T10:34:19Z</time>
      </trkpt>
      <trkpt lat="45.58544" lon="2.73937">
        <ele>863.6</ele>
        <time>2021-07-23T10:34:30Z</time>
      </trkpt>
      <trkpt lat="45.5854" lon="2.7393">
        <ele>863.4</ele>
        <time>2021-07-23T10:34:43Z</time>
      </trkpt>
      <trkpt lat="45.58535" lon="2.73934">
        <ele>863.9</ele>
        <time>2021-07-23T10:34:49Z</time>
      </trkpt>
      <trkpt lat="45.58522" lon="2.73941">
        <ele>864.9</ele>
        <time>2021-07-23T10:35:01Z</time>
      </trkpt>
      <trkpt lat="45.58509" lon="2.73948">
        <ele>865.7</ele>
        <time>2021-07-23T10:35:12Z</time>
      </trkpt>
      <trkpt lat="45.58507" lon="2.73949">
        <ele>865.9</ele>
        <time>2021-07-23T10:35:15Z</time>
      </trkpt>
      <trkpt lat="45.58497" lon="2.73959">
        <ele>866.7</ele>
        <time>2021-07-23T10:35:51Z</time>
      </trkpt>
      <trkpt lat="45.58497" lon="2.73959">
        <ele>866.7</ele>
        <time>2021-07-23T10:35:53Z</time>
      </trkpt>
    </trkseg>
  </trk>
</gpx>